Time,TemperatureF,DewpointF,PressureIn,WindDirection,WindDirectionDegrees,WindSpeedMPH,WindSpeedGustMPH,Humidity,HourlyPrecipIn,Conditions,Clouds,dailyrainin,SoftwareType,DateUTC
2013-05-08 00:25:00,57.0,56.4,29.93,South,180,2.0,3.0,98,0.00,,,0.00,VWS V14.01,2013-05-08 04:25:00,
2013-05-08 00:26:00,57.0,56.4,29.93,South,180,2.0,4.0,98,0.00,,,0.00,VWS V14.01,2013-05-08 04:26:00,
2013-05-08 00:27:00,57.0,56.4,29.93,South,180,4.0,4.0,98,0.00,,,0.00,VWS V14.01,2013-05-08 04:27:00,
2013-05-08 00:28:00,57.0,56.4,29.93,South,180,2.0,4.0,98,0.00,,,0.00,VWS V14.01,2013-05-08 04:28:00,
2013-05-08 00:30:00,57.0,56.4,29.93,South,180,2.0,3.0,98,0.00,,,0.00,VWS V14.01,2013-05-08 04:30:00,
2013-05-08 00:32:00,57.0,56.4,29.93,South,180,4.0,5.0,98,0.00,,,0.00,VWS V14.01,2013-05-08 04:32:00,
2013-05-08 00:33:00,57.0,56.4,29.93,South,180,2.0,5.0,98,0.00,,,0.00,VWS V14.01,2013-05-08 04:33:00,
2013-05-08 00:34:00,57.0,56.4,29.92,South,180,3.0,3.0,98,0.00,,,0.00,VWS V14.01,2013-05-08 04:34:00,
2013-05-08 00:37:00,57.0,56.4,29.92,South,180,2.0,4.0,98,0.00,,,0.00,VWS V14.01,2013-05-08 04:37:00,
2013-05-08 00:39:00,57.0,56.4,29.92,South,180,1.0,2.0,98,0.00,,,0.00,VWS V14.01,2013-05-08 04:39:00,
2013-05-08 00:40:00,57.0,56.4,29.92,South,180,0.0,1.0,98,0.00,,,0.00,VWS V14.01,2013-05-08 04:40:00,
2013-05-08 00:41:00,57.0,56.4,29.92,South,180,0.0,0.0,98,0.00,,,0.00,VWS V14.01,2013-05-08 04:41:00,
2013-05-08 00:44:00,57.0,56.4,29.92,South,180,0.0,0.0,98,0.00,,,0.00,VWS V14.01,2013-05-08 04:44:00,
2013-05-08 00:45:00,57.0,56.4,29.92,South,180,0.0,0.0,98,0.00,,,0.00,VWS V14.01,2013-05-08 04:45:00,
2013-05-08 00:46:00,57.0,56.4,29.92,South,180,0.0,0.0,98,0.00,,,0.00,VWS V14.01,2013-05-08 04:46:00,
2013-05-08 00:50:00,57.0,56.4,29.92,SE,135,1.0,2.0,98,0.00,,,0.00,VWS V14.01,2013-05-08 04:50:00,
2013-05-08 00:51:00,57.0,56.4,29.92,SE,135,0.0,2.0,98,0.00,,,0.00,VWS V14.01,2013-05-08 04:51:00,
2013-05-08 00:52:00,57.0,56.4,29.92,SE,135,0.0,0.0,98,0.00,,,0.00,VWS V14.01,2013-05-08 04:52:00,
2013-05-08 00:56:00,57.0,56.4,29.92,SE,135,0.0,0.0,98,0.00,,,0.00,VWS V14.01,2013-05-08 04:56:00,
2013-05-08 00:57:00,57.0,56.4,29.92,SE,135,0.0,0.0,98,0.00,,,0.00,VWS V14.01,2013-05-08 04:57:00,
2013-05-08 00:59:00,57.0,56.4,29.92,SE,135,0.0,0.0,98,0.00,,,0.00,VWS V14.01,2013-05-08 04:59:00,
2013-05-08 01:02:00,56.0,55.2,29.92,SE,135,0.0,0.0,97,0.00,,,0.00,VWS V14.01,2013-05-08 05:02:00,
2013-05-08 01:03:00,57.0,56.4,29.92,SE,135,0.0,0.0,98,0.00,,,0.00,VWS V14.01,2013-05-08 05:03:00,
2013-05-08 01:04:00,56.0,55.2,29.92,SE,135,0.0,0.0,97,0.00,,,0.00,VWS V14.01,2013-05-08 05:04:00,
2013-05-08 01:07:00,56.0,55.2,29.92,SE,135,0.0,0.0,97,0.00,,,0.00,VWS V14.01,2013-05-08 05:07:00,
2013-05-08 01:09:00,56.0,55.2,29.92,SE,135,0.0,0.0,97,0.00,,,0.00,VWS V14.01,2013-05-08 05:09:00,
2013-05-08 01:10:00,56.0,55.2,29.92,SE,135,0.0,0.0,97,0.00,,,0.00,VWS V14.01,2013-05-08 05:10:00,
2013-05-08 01:14:00,57.0,56.4,29.91,SE,135,0.0,0.0,98,0.00,,,0.00,VWS V14.01,2013-05-08 05:14:00,
2013-05-08 01:15:00,57.0,56.4,29.91,SE,135,0.0,0.0,98,0.00,,,0.00,VWS V14.01,2013-05-08 05:15:00,
2013-05-08 01:16:00,56.0,55.2,29.91,SE,135,0.0,0.0,97,0.00,,,0.00,VWS V14.01,2013-05-08 05:16:00,
2013-05-08 01:19:00,56.0,55.2,29.91,SE,135,0.0,0.0,97,0.00,,,0.00,VWS V14.01,2013-05-08 05:19:00,
2013-05-08 01:20:00,57.0,56.4,29.91,SE,135,0.0,0.0,98,0.00,,,0.00,VWS V14.01,2013-05-08 05:20:00,
2013-05-08 01:21:00,57.0,56.4,29.91,SE,135,0.0,0.0,98,0.00,,,0.00,VWS V14.01,2013-05-08 05:21:00,
2013-05-08 01:22:00,56.0,55.2,29.91,SE,135,0.0,0.0,97,0.00,,,0.00,VWS V14.01,2013-05-08 05:22:00,
2013-05-08 01:25:00,56.0,55.2,29.91,SE,135,0.0,0.0,97,0.00,,,0.00,VWS V14.01,2013-05-08 05:25:00,
2013-05-08 01:26:00,56.0,55.2,29.91,SE,135,0.0,0.0,97,0.00,,,0.00,VWS V14.01,2013-05-08 05:26:00,
2013-05-08 01:28:00,56.0,55.2,29.91,SE,135,0.0,0.0,97,0.00,,,0.00,VWS V14.01,2013-05-08 05:28:00,
2013-05-08 01:30:00,57.0,56.4,29.91,SE,135,0.0,0.0,98,0.00,,,0.00,VWS V14.01,2013-05-08 05:30:00,
2013-05-08 01:31:00,57.0,56.4,29.91,SE,135,0.0,0.0,98,0.00,,,0.00,VWS V14.01,2013-05-08 05:31:00,
2013-05-08 01:33:00,57.0,56.4,29.91,SE,135,0.0,0.0,98,0.00,,,0.00,VWS V14.01,2013-05-08 05:33:00,
2013-05-08 01:36:00,57.0,56.4,29.90,SE,135,1.0,2.0,98,0.00,,,0.00,VWS V14.01,2013-05-08 05:36:00,
2013-05-08 01:37:00,57.0,56.4,29.90,SE,135,1.0,1.0,98,0.00,,,0.00,VWS V14.01,2013-05-08 05:37:00,
2013-05-08 01:39:00,57.0,56.4,29.90,SE,135,2.0,3.0,98,0.00,,,0.00,VWS V14.01,2013-05-08 05:39:00,
2013-05-08 01:41:00,57.0,56.4,29.90,SE,135,1.0,2.0,98,0.00,,,0.00,VWS V14.01,2013-05-08 05:41:00,
2013-05-08 01:42:00,57.0,56.4,29.90,SE,135,1.0,2.0,98,0.00,,,0.00,VWS V14.01,2013-05-08 05:42:00,
2013-05-08 01:44:00,57.0,56.4,29.90,SE,135,1.0,3.0,98,0.00,,,0.00,VWS V14.01,2013-05-08 05:44:00,
2013-05-08 01:46:00,57.0,56.4,29.90,SE,135,1.0,2.0,98,0.00,,,0.00,VWS V14.01,2013-05-08 05:46:00,
2013-05-08 01:47:00,57.0,56.4,29.90,SE,135,1.0,2.0,98,0.00,,,0.00,VWS V14.01,2013-05-08 05:47:00,
2013-05-08 01:48:00,57.0,56.4,29.90,SE,135,2.0,2.0,98,0.00,,,0.00,VWS V14.01,2013-05-08 05:48:00,
2013-05-08 01:51:00,57.0,56.4,29.90,SE,135,1.0,2.0,98,0.00,,,0.00,VWS V14.01,2013-05-08 05:51:00,
2013-05-08 01:53:00,57.0,56.4,29.90,SE,135,2.0,2.0,98,0.00,,,0.00,VWS V14.01,2013-05-08 05:53:00,
2013-05-08 01:54:00,57.0,56.4,29.90,SE,135,2.0,2.0,98,0.00,,,0.00,VWS V14.01,2013-05-08 05:54:00,
2013-05-08 01:56:00,57.0,56.4,29.90,SE,135,0.0,0.0,98,0.00,,,0.00,VWS V14.01,2013-05-08 05:56:00,
2013-05-08 01:57:00,57.0,56.4,29.90,SE,135,1.0,1.0,98,0.00,,,0.00,VWS V14.01,2013-05-08 05:57:00,
2013-05-08 01:58:00,57.0,56.4,29.90,SE,135,2.0,2.0,98,0.00,,,0.00,VWS V14.01,2013-05-08 05:58:00,
2013-05-08 01:59:00,57.0,56.4,29.90,SE,135,1.0,2.0,98,0.00,,,0.00,VWS V14.01,2013-05-08 05:59:00,
2013-05-08 02:00:00,57.0,56.4,29.90,SE,135,0.0,0.0,98,0.00,,,0.00,VWS V14.01,2013-05-08 06:00:00,
2013-05-08 02:03:00,57.0,56.4,29.90,SE,135,0.0,0.0,98,0.00,,,0.00,VWS V14.01,2013-05-08 06:03:00,
2013-05-08 02:04:00,57.0,56.4,29.90,SSE,157,3.0,4.0,98,0.00,,,0.00,VWS V14.01,2013-05-08 06:04:00,
2013-05-08 02:05:00,57.0,56.4,29.90,South,180,5.0,7.0,98,0.00,,,0.00,VWS V14.01,2013-05-08 06:05:00,
2013-05-08 02:06:00,57.0,56.4,29.90,South,180,3.0,4.0,98,0.00,,,0.00,VWS V14.01,2013-05-08 06:06:00,
2013-05-08 02:08:00,57.0,56.4,29.90,South,180,4.0,4.0,98,0.00,,,0.00,VWS V14.01,2013-05-08 06:08:00,
2013-05-08 02:09:00,57.0,56.4,29.90,South,180,3.0,3.0,98,0.00,,,0.00,VWS V14.01,2013-05-08 06:09:00,
2013-05-08 02:10:00,57.0,56.4,29.90,South,180,3.0,3.0,98,0.00,,,0.00,VWS V14.01,2013-05-08 06:10:00,
2013-05-08 02:11:00,57.0,56.4,29.90,South,180,3.0,3.0,98,0.00,,,0.00,VWS V14.01,2013-05-08 06:11:00,
2013-05-08 02:13:00,57.0,56.4,29.90,South,180,0.0,1.0,98,0.00,,,0.00,VWS V14.01,2013-05-08 06:13:00,
2013-05-08 02:15:00,57.0,56.4,29.90,South,180,0.0,0.0,98,0.00,,,0.00,VWS V14.01,2013-05-08 06:15:00,
2013-05-08 02:18:00,57.0,56.4,29.90,SE,135,3.0,3.0,98,0.00,,,0.00,VWS V14.01,2013-05-08 06:18:00,
2013-05-08 02:19:00,57.0,56.4,29.90,SE,135,2.0,3.0,98,0.00,,,0.00,VWS V14.01,2013-05-08 06:19:00,
2013-05-08 02:20:00,57.0,56.4,29.90,SE,135,4.0,4.0,98,0.00,,,0.00,VWS V14.01,2013-05-08 06:20:00,
2013-05-08 02:22:00,57.0,56.4,29.90,SE,135,1.0,2.0,98,0.00,,,0.00,VWS V14.01,2013-05-08 06:22:00,
2013-05-08 02:23:00,57.0,56.4,29.90,SE,135,1.0,3.0,98,0.00,,,0.00,VWS V14.01,2013-05-08 06:23:00,
2013-05-08 02:26:00,57.0,56.4,29.90,SE,135,2.0,2.0,98,0.00,,,0.00,VWS V14.01,2013-05-08 06:26:00,
2013-05-08 02:27:00,57.0,56.4,29.90,SE,135,3.0,3.0,98,0.00,,,0.00,VWS V14.01,2013-05-08 06:27:00,
2013-05-08 02:28:00,57.0,56.4,29.90,SE,135,2.0,3.0,98,0.00,,,0.00,VWS V14.01,2013-05-08 06:28:00,
2013-05-08 02:29:00,57.0,56.4,29.90,SE,135,3.0,3.0,98,0.00,,,0.00,VWS V14.01,2013-05-08 06:29:00,
2013-05-08 02:31:00,57.0,56.4,29.90,SE,135,1.0,2.0,98,0.00,,,0.00,VWS V14.01,2013-05-08 06:31:00,
2013-05-08 02:32:00,57.0,56.4,29.90,SE,135,1.0,2.0,98,0.00,,,0.00,VWS V14.01,2013-05-08 06:32:00,
2013-05-08 02:34:00,57.0,56.4,29.90,SE,135,1.0,2.0,98,0.00,,,0.00,VWS V14.01,2013-05-08 06:34:00,
2013-05-08 02:35:00,57.0,56.4,29.90,SE,135,0.0,2.0,98,0.00,,,0.00,VWS V14.01,2013-05-08 06:35:00,
2013-05-08 02:37:00,57.0,56.4,29.90,SE,135,0.0,0.0,98,0.00,,,0.00,VWS V14.01,2013-05-08 06:37:00,
2013-05-08 02:40:00,57.0,56.4,29.90,SE,135,0.0,0.0,98,0.00,,,0.00,VWS V14.01,2013-05-08 06:40:00,
2013-05-08 02:41:00,57.0,56.4,29.90,SE,135,0.0,0.0,98,0.00,,,0.00,VWS V14.01,2013-05-08 06:41:00,
2013-05-08 02:42:00,57.0,56.4,29.90,SE,135,0.0,0.0,98,0.00,,,0.00,VWS V14.01,2013-05-08 06:42:00,
2013-05-08 02:45:00,57.0,56.4,29.90,SE,135,0.0,0.0,98,0.00,,,0.00,VWS V14.01,2013-05-08 06:45:00,
2013-05-08 02:47:00,56.0,55.2,29.90,SE,135,0.0,0.0,97,0.00,,,0.00,VWS V14.01,2013-05-08 06:47:00,
2013-05-08 02:48:00,56.0,55.2,29.90,SE,135,0.0,0.0,97,0.00,,,0.00,VWS V14.01,2013-05-08 06:48:00,
2013-05-08 02:49:00,56.0,55.2,29.90,SE,135,0.0,0.0,97,0.00,,,0.00,VWS V14.01,2013-05-08 06:49:00,
2013-05-08 02:52:00,56.0,55.2,29.90,SE,135,0.0,0.0,97,0.00,,,0.00,VWS V14.01,2013-05-08 06:52:00,
2013-05-08 02:54:00,57.0,56.4,29.89,SE,135,0.0,0.0,98,0.00,,,0.00,VWS V14.01,2013-05-08 06:54:00,
2013-05-08 02:55:00,56.0,55.2,29.89,SE,135,0.0,0.0,97,0.00,,,0.00,VWS V14.01,2013-05-08 06:55:00,
2013-05-08 02:57:00,56.0,55.2,29.89,SE,135,0.0,0.0,97,0.00,,,0.00,VWS V14.01,2013-05-08 06:57:00,
2013-05-08 02:59:00,56.0,55.2,29.89,SE,135,0.0,0.0,97,0.00,,,0.00,VWS V14.01,2013-05-08 06:59:00,
2013-05-08 03:00:00,56.0,55.2,29.89,SE,135,0.0,0.0,97,0.00,,,0.00,VWS V14.01,2013-05-08 07:00:00,
2013-05-08 03:02:00,56.0,55.2,29.89,SE,135,0.0,0.0,97,0.00,,,0.00,VWS V14.01,2013-05-08 07:02:00,
2013-05-08 03:03:00,56.0,55.2,29.89,SE,135,0.0,0.0,97,0.00,,,0.00,VWS V14.01,2013-05-08 07:03:00,
2013-05-08 03:04:00,56.0,55.2,29.90,SE,135,0.0,0.0,97,0.00,,,0.00,VWS V14.01,2013-05-08 07:04:00,
2013-05-08 03:06:00,56.0,55.2,29.90,SE,135,0.0,0.0,97,0.00,,,0.00,VWS V14.01,2013-05-08 07:06:00,
2013-05-08 03:07:00,56.0,55.2,29.90,SE,135,0.0,0.0,97,0.00,,,0.00,VWS V14.01,2013-05-08 07:07:00,
2013-05-08 03:08:00,56.0,55.2,29.90,SE,135,0.0,0.0,97,0.00,,,0.00,VWS V14.01,2013-05-08 07:08:00,
2013-05-08 03:09:00,56.0,55.2,29.90,SE,135,0.0,0.0,97,0.00,,,0.00,VWS V14.01,2013-05-08 07:09:00,
2013-05-08 03:12:00,56.0,55.2,29.90,SE,135,0.0,0.0,97,0.00,,,0.00,VWS V14.01,2013-05-08 07:12:00,
2013-05-08 03:13:00,56.0,55.2,29.90,SE,135,0.0,0.0,97,0.00,,,0.00,VWS V14.01,2013-05-08 07:13:00,
2013-05-08 03:14:00,56.0,55.2,29.90,SE,135,0.0,0.0,97,0.00,,,0.00,VWS V14.01,2013-05-08 07:14:00,
2013-05-08 03:15:00,56.0,55.2,29.90,SE,135,0.0,0.0,97,0.00,,,0.00,VWS V14.01,2013-05-08 07:15:00,
2013-05-08 03:18:00,56.0,55.2,29.90,SE,135,0.0,0.0,97,0.00,,,0.00,VWS V14.01,2013-05-08 07:18:00,
2013-05-08 03:19:00,56.0,55.2,29.90,SE,135,0.0,0.0,97,0.00,,,0.00,VWS V14.01,2013-05-08 07:19:00,
2013-05-08 03:20:00,56.0,55.2,29.90,SE,135,0.0,0.0,97,0.00,,,0.00,VWS V14.01,2013-05-08 07:20:00,
2013-05-08 03:23:00,56.0,55.2,29.90,SE,135,0.0,0.0,97,0.00,,,0.00,VWS V14.01,2013-05-08 07:23:00,
2013-05-08 03:24:00,56.0,55.2,29.89,SE,135,0.0,0.0,97,0.00,,,0.00,VWS V14.01,2013-05-08 07:24:00,
2013-05-08 03:27:00,56.0,55.2,29.89,SE,135,0.0,0.0,97,0.00,,,0.00,VWS V14.01,2013-05-08 07:27:00,
2013-05-08 03:28:00,56.0,55.2,29.89,SE,135,0.0,0.0,97,0.00,,,0.00,VWS V14.01,2013-05-08 07:28:00,
2013-05-08 03:29:00,56.0,55.2,29.89,SE,135,0.0,0.0,97,0.00,,,0.00,VWS V14.01,2013-05-08 07:29:00,
2013-05-08 03:31:00,56.0,55.2,29.89,SE,135,0.0,0.0,97,0.00,,,0.00,VWS V14.01,2013-05-08 07:31:00,
2013-05-08 03:33:00,55.0,54.2,29.89,SE,135,0.0,0.0,97,0.00,,,0.00,VWS V14.01,2013-05-08 07:33:00,
2013-05-08 03:35:00,55.0,54.2,29.90,SE,135,0.0,0.0,97,0.00,,,0.00,VWS V14.01,2013-05-08 07:35:00,
2013-05-08 03:36:00,55.0,54.2,29.90,SE,135,0.0,0.0,97,0.00,,,0.00,VWS V14.01,2013-05-08 07:36:00,
2013-05-08 03:37:00,55.0,54.2,29.90,SE,135,0.0,0.0,97,0.00,,,0.00,VWS V14.01,2013-05-08 07:37:00,
2013-05-08 03:38:00,55.0,54.2,29.90,SE,135,0.0,0.0,97,0.00,,,0.00,VWS V14.01,2013-05-08 07:38:00,
2013-05-08 03:39:00,55.0,54.2,29.90,SE,135,0.0,0.0,97,0.00,,,0.00,VWS V14.01,2013-05-08 07:39:00,
2013-05-08 03:41:00,55.0,54.2,29.90,SE,135,0.0,0.0,97,0.00,,,0.00,VWS V14.01,2013-05-08 07:41:00,
2013-05-08 03:42:00,55.0,54.2,29.90,SE,135,0.0,0.0,97,0.00,,,0.00,VWS V14.01,2013-05-08 07:42:00,
2013-05-08 03:43:00,55.0,54.2,29.90,SE,135,0.0,0.0,97,0.00,,,0.00,VWS V14.01,2013-05-08 07:43:00,
2013-05-08 03:46:00,55.0,54.2,29.90,SE,135,0.0,0.0,97,0.00,,,0.00,VWS V14.01,2013-05-08 07:46:00,
2013-05-08 03:47:00,55.0,54.2,29.90,ESE,112,0.0,0.0,97,0.00,,,0.00,VWS V14.01,2013-05-08 07:47:00,
2013-05-08 03:48:00,55.0,54.2,29.90,East,90,2.0,3.0,97,0.00,,,0.00,VWS V14.01,2013-05-08 07:48:00,
2013-05-08 03:51:00,55.0,54.2,29.90,East,90,2.0,2.0,97,0.00,,,0.00,VWS V14.01,2013-05-08 07:51:00,
2013-05-08 03:52:00,55.0,54.2,29.90,East,90,2.0,3.0,97,0.00,,,0.00,VWS V14.01,2013-05-08 07:52:00,
2013-05-08 03:53:00,55.0,54.2,29.90,East,90,2.0,2.0,97,0.00,,,0.00,VWS V14.01,2013-05-08 07:53:00,
2013-05-08 03:54:00,55.0,54.2,29.90,East,90,3.0,3.0,97,0.00,,,0.00,VWS V14.01,2013-05-08 07:54:00,
2013-05-08 03:57:00,55.0,54.2,29.90,East,90,3.0,3.0,97,0.00,,,0.00,VWS V14.01,2013-05-08 07:57:00,
2013-05-08 03:58:00,55.0,54.2,29.90,East,90,3.0,3.0,97,0.00,,,0.00,VWS V14.01,2013-05-08 07:58:00,
2013-05-08 03:59:00,55.0,54.2,29.90,East,90,3.0,3.0,97,0.00,,,0.00,VWS V14.01,2013-05-08 07:59:00,
2013-05-08 04:03:00,55.0,54.2,29.90,East,90,2.0,2.0,97,0.00,,,0.00,VWS V14.01,2013-05-08 08:03:00,
2013-05-08 04:04:00,55.0,54.2,29.90,East,90,2.0,2.0,97,0.00,,,0.00,VWS V14.01,2013-05-08 08:04:00,
2013-05-08 04:08:00,55.0,54.2,29.90,East,90,2.0,2.0,97,0.00,,,0.00,VWS V14.01,2013-05-08 08:08:00,
2013-05-08 04:09:00,55.0,54.2,29.90,East,90,1.0,2.0,97,0.00,,,0.00,VWS V14.01,2013-05-08 08:09:00,
2013-05-08 04:13:00,54.0,53.2,29.90,East,90,2.0,2.0,97,0.00,,,0.00,VWS V14.01,2013-05-08 08:13:00,
2013-05-08 04:14:00,55.0,54.2,29.90,East,90,0.0,2.0,97,0.00,,,0.00,VWS V14.01,2013-05-08 08:14:00,
2013-05-08 04:15:00,54.0,53.2,29.90,East,90,0.0,1.0,97,0.00,,,0.00,VWS V14.01,2013-05-08 08:15:00,
2013-05-08 04:16:00,54.0,53.2,29.90,East,90,0.0,1.0,97,0.00,,,0.00,VWS V14.01,2013-05-08 08:16:00,
2013-05-08 04:19:00,54.0,53.2,29.90,East,90,0.0,0.0,97,0.00,,,0.00,VWS V14.01,2013-05-08 08:19:00,
2013-05-08 04:20:00,54.0,53.2,29.90,East,90,0.0,0.0,97,0.00,,,0.00,VWS V14.01,2013-05-08 08:20:00,
2013-05-08 04:22:00,54.0,53.2,29.90,East,90,0.0,0.0,97,0.00,,,0.00,VWS V14.01,2013-05-08 08:22:00,
2013-05-08 04:24:00,54.0,53.2,29.90,East,90,0.0,0.0,97,0.00,,,0.00,VWS V14.01,2013-05-08 08:24:00,
2013-05-08 04:25:00,54.0,53.2,29.90,East,90,0.0,0.0,97,0.00,,,0.00,VWS V14.01,2013-05-08 08:25:00,
2013-05-08 04:27:00,54.0,53.2,29.90,East,90,0.0,0.0,97,0.00,,,0.00,VWS V14.01,2013-05-08 08:27:00,
2013-05-08 04:29:00,54.0,53.2,29.90,East,90,1.0,2.0,97,0.00,,,0.00,VWS V14.01,2013-05-08 08:29:00,
2013-05-08 04:30:00,54.0,53.2,29.90,East,90,2.0,2.0,97,0.00,,,0.00,VWS V14.01,2013-05-08 08:30:00,
2013-05-08 04:31:00,54.0,53.2,29.90,East,90,2.0,2.0,97,0.00,,,0.00,VWS V14.01,2013-05-08 08:31:00,
2013-05-08 04:32:00,54.0,53.2,29.90,East,90,3.0,3.0,97,0.00,,,0.00,VWS V14.01,2013-05-08 08:32:00,
2013-05-08 04:33:00,54.0,53.2,29.90,East,90,3.0,3.0,97,0.00,,,0.00,VWS V14.01,2013-05-08 08:33:00,
2013-05-08 04:35:00,54.0,53.2,29.90,ENE,67,4.0,4.0,97,0.00,,,0.00,VWS V14.01,2013-05-08 08:35:00,
2013-05-08 04:36:00,54.0,53.2,29.90,ENE,67,3.0,3.0,97,0.00,,,0.00,VWS V14.01,2013-05-08 08:36:00,
2013-05-08 04:37:00,54.0,53.2,29.90,ENE,67,2.0,3.0,97,0.00,,,0.00,VWS V14.01,2013-05-08 08:37:00,
2013-05-08 04:38:00,54.0,53.2,29.90,ENE,67,3.0,4.0,97,0.00,,,0.00,VWS V14.01,2013-05-08 08:38:00,
2013-05-08 04:39:00,54.0,53.2,29.90,ENE,67,3.0,3.0,97,0.00,,,0.00,VWS V14.01,2013-05-08 08:39:00,
2013-05-08 04:40:00,54.0,53.2,29.90,ENE,67,3.0,3.0,97,0.00,,,0.00,VWS V14.01,2013-05-08 08:40:00,
2013-05-08 04:41:00,54.0,53.2,29.90,ENE,67,1.0,3.0,97,0.00,,,0.00,VWS V14.01,2013-05-08 08:41:00,
2013-05-08 04:42:00,54.0,53.2,29.90,ENE,67,1.0,3.0,97,0.00,,,0.00,VWS V14.01,2013-05-08 08:42:00,
2013-05-08 04:43:00,54.0,53.2,29.90,ENE,67,3.0,3.0,97,0.00,,,0.00,VWS V14.01,2013-05-08 08:43:00,
2013-05-08 04:44:00,55.0,54.2,29.89,ENE,67,2.0,4.0,97,0.00,,,0.00,VWS V14.01,2013-05-08 08:44:00,
2013-05-08 04:45:00,54.0,53.2,29.89,ENE,67,2.0,3.0,97,0.00,,,0.00,VWS V14.01,2013-05-08 08:45:00,
2013-05-08 04:47:00,54.0,53.2,29.89,ENE,67,2.0,2.0,97,0.00,,,0.00,VWS V14.01,2013-05-08 08:47:00,
2013-05-08 04:49:00,54.0,53.2,29.89,ENE,67,1.0,3.0,97,0.00,,,0.00,VWS V14.01,2013-05-08 08:49:00,
2013-05-08 04:50:00,54.0,53.2,29.89,ENE,67,3.0,3.0,97,0.00,,,0.00,VWS V14.01,2013-05-08 08:50:00,
2013-05-08 04:51:00,55.0,54.2,29.89,ENE,67,2.0,4.0,97,0.00,,,0.00,VWS V14.01,2013-05-08 08:51:00,
2013-05-08 04:53:00,55.0,54.2,29.89,ENE,67,2.0,4.0,97,0.00,,,0.00,VWS V14.01,2013-05-08 08:53:00,
2013-05-08 04:54:00,55.0,54.2,29.89,ENE,67,2.0,3.0,97,0.00,,,0.00,VWS V14.01,2013-05-08 08:54:00,
2013-05-08 04:55:00,55.0,54.2,29.89,ENE,67,1.0,3.0,97,0.00,,,0.00,VWS V14.01,2013-05-08 08:55:00,
2013-05-08 04:58:00,55.0,54.2,29.89,ENE,67,2.0,3.0,97,0.00,,,0.00,VWS V14.01,2013-05-08 08:58:00,
2013-05-08 04:59:00,55.0,54.2,29.89,ENE,67,0.0,0.0,97,0.00,,,0.00,VWS V14.01,2013-05-08 08:59:00,
2013-05-08 05:00:00,55.0,54.2,29.89,ENE,67,2.0,3.0,97,0.00,,,0.00,VWS V14.01,2013-05-08 09:00:00,
2013-05-08 05:01:00,55.0,54.2,29.89,ENE,67,2.0,3.0,97,0.00,,,0.00,VWS V14.01,2013-05-08 09:01:00,
2013-05-08 05:03:00,55.0,54.2,29.90,ENE,67,0.0,0.0,97,0.00,,,0.00,VWS V14.01,2013-05-08 09:03:00,
2013-05-08 05:04:00,55.0,54.2,29.90,ENE,67,0.0,0.0,97,0.00,,,0.00,VWS V14.01,2013-05-08 09:04:00,
2013-05-08 05:05:00,55.0,54.2,29.90,ENE,67,0.0,0.0,97,0.00,,,0.00,VWS V14.01,2013-05-08 09:05:00,
2013-05-08 05:07:00,56.0,55.2,29.90,ENE,67,0.0,0.0,97,0.00,,,0.00,VWS V14.01,2013-05-08 09:07:00,
2013-05-08 05:09:00,56.0,55.2,29.90,East,90,3.0,3.0,97,0.00,,,0.00,VWS V14.01,2013-05-08 09:09:00,
2013-05-08 05:11:00,56.0,55.2,29.90,SE,135,3.0,5.0,97,0.00,,,0.00,VWS V14.01,2013-05-08 09:11:00,
2013-05-08 05:12:00,56.0,55.2,29.90,SE,135,1.0,2.0,97,0.00,,,0.00,VWS V14.01,2013-05-08 09:12:00,
2013-05-08 05:13:00,56.0,55.2,29.90,SE,135,2.0,3.0,97,0.00,,,0.00,VWS V14.01,2013-05-08 09:13:00,
2013-05-08 05:15:00,56.0,55.2,29.90,SE,135,1.0,2.0,97,0.00,,,0.00,VWS V14.01,2013-05-08 09:15:00,
2013-05-08 05:16:00,57.0,56.4,29.90,SE,135,2.0,2.0,98,0.00,,,0.00,VWS V14.01,2013-05-08 09:16:00,
2013-05-08 05:18:00,57.0,56.4,29.90,SE,135,2.0,2.0,98,0.00,,,0.00,VWS V14.01,2013-05-08 09:18:00,
2013-05-08 05:19:00,57.0,56.4,29.90,SE,135,1.0,2.0,98,0.00,,,0.00,VWS V14.01,2013-05-08 09:19:00,
2013-05-08 05:21:00,57.0,56.4,29.90,SE,135,3.0,3.0,98,0.00,,,0.00,VWS V14.01,2013-05-08 09:21:00,
2013-05-08 05:23:00,57.0,56.4,29.90,ESE,112,4.0,6.0,98,0.00,,,0.00,VWS V14.01,2013-05-08 09:23:00,
2013-05-08 05:25:00,57.0,56.4,29.90,ESE,112,7.0,8.0,98,0.00,,,0.00,VWS V14.01,2013-05-08 09:25:00,
2013-05-08 05:28:00,58.0,57.4,29.90,ESE,112,5.0,7.0,98,0.00,,,0.00,VWS V14.01,2013-05-08 09:28:00,
2013-05-08 05:32:00,58.0,57.4,29.90,ESE,112,5.0,7.0,98,0.00,,,0.00,VWS V14.01,2013-05-08 09:32:00,
2013-05-08 05:33:00,58.0,57.4,29.90,ESE,112,3.0,5.0,98,0.00,,,0.00,VWS V14.01,2013-05-08 09:33:00,
2013-05-08 05:34:00,58.0,57.4,29.90,ESE,112,7.0,7.0,98,0.00,,,0.00,VWS V14.01,2013-05-08 09:34:00,
2013-05-08 05:35:00,58.0,57.4,29.90,ESE,112,6.0,7.0,98,0.00,,,0.00,VWS V14.01,2013-05-08 09:35:00,
2013-05-08 05:38:00,58.0,57.4,29.90,ESE,112,6.0,8.0,98,0.00,,,0.00,VWS V14.01,2013-05-08 09:38:00,
2013-05-08 05:40:00,58.0,57.4,29.90,SE,135,6.0,7.0,98,0.00,,,0.00,VWS V14.01,2013-05-08 09:40:00,
2013-05-08 05:41:00,58.0,57.4,29.90,SE,135,5.0,6.0,98,0.00,,,0.00,VWS V14.01,2013-05-08 09:41:00,
2013-05-08 05:43:00,58.0,57.4,29.90,ESE,112,5.0,6.0,98,0.00,,,0.00,VWS V14.01,2013-05-08 09:43:00,
2013-05-08 05:44:00,58.0,57.4,29.90,ESE,112,7.0,7.0,98,0.00,,,0.00,VWS V14.01,2013-05-08 09:44:00,
2013-05-08 05:46:00,58.0,57.4,29.90,ESE,112,5.0,6.0,98,0.00,,,0.00,VWS V14.01,2013-05-08 09:46:00,
2013-05-08 05:48:00,58.0,57.4,29.90,ESE,112,3.0,5.0,98,0.00,,,0.00,VWS V14.01,2013-05-08 09:48:00,
2013-05-08 05:50:00,58.0,57.4,29.90,ESE,112,3.0,3.0,98,0.00,,,0.00,VWS V14.01,2013-05-08 09:50:00,
2013-05-08 05:51:00,58.0,57.4,29.90,SE,135,4.0,5.0,98,0.00,,,0.00,VWS V14.01,2013-05-08 09:51:00,
2013-05-08 05:54:00,58.0,57.4,29.91,ESE,112,4.0,6.0,98,0.00,,,0.00,VWS V14.01,2013-05-08 09:54:00,
2013-05-08 05:56:00,58.0,57.4,29.91,ESE,112,6.0,6.0,98,0.00,,,0.00,VWS V14.01,2013-05-08 09:56:00,
2013-05-08 05:57:00,58.0,57.4,29.91,ESE,112,7.0,7.0,98,0.00,,,0.00,VWS V14.01,2013-05-08 09:57:00,
2013-05-08 05:58:00,58.0,57.4,29.91,ESE,112,4.0,6.0,98,0.00,,,0.00,VWS V14.01,2013-05-08 09:58:00,
2013-05-08 06:00:00,58.0,57.4,29.91,ESE,112,6.0,6.0,98,0.00,,,0.00,VWS V14.01,2013-05-08 10:00:00,
2013-05-08 06:02:00,58.0,57.4,29.91,ESE,112,7.0,7.0,98,0.00,,,0.00,VWS V14.01,2013-05-08 10:02:00,
2013-05-08 06:03:00,58.0,57.4,29.91,ESE,112,6.0,7.0,98,0.00,,,0.00,VWS V14.01,2013-05-08 10:03:00,
2013-05-08 06:04:00,59.0,58.4,29.91,ESE,112,5.0,6.0,98,0.00,,,0.00,VWS V14.01,2013-05-08 10:04:00,
2013-05-08 06:05:00,59.0,58.4,29.91,ESE,112,6.0,6.0,98,0.00,,,0.00,VWS V14.01,2013-05-08 10:05:00,
2013-05-08 06:06:00,59.0,58.4,29.91,ESE,112,6.0,7.0,98,0.00,,,0.00,VWS V14.01,2013-05-08 10:06:00,
2013-05-08 06:07:00,59.0,58.4,29.91,ESE,112,5.0,6.0,98,0.00,,,0.00,VWS V14.01,2013-05-08 10:07:00,
2013-05-08 06:08:00,59.0,58.4,29.91,ESE,112,5.0,6.0,98,0.00,,,0.00,VWS V14.01,2013-05-08 10:08:00,
2013-05-08 06:10:00,59.0,58.4,29.91,ESE,112,6.0,6.0,98,0.00,,,0.00,VWS V14.01,2013-05-08 10:10:00,
2013-05-08 06:11:00,59.0,58.4,29.91,ESE,112,6.0,7.0,98,0.00,,,0.00,VWS V14.01,2013-05-08 10:11:00,
2013-05-08 06:13:00,59.0,58.4,29.91,ESE,112,6.0,6.0,98,0.00,,,0.00,VWS V14.01,2013-05-08 10:13:00,
2013-05-08 06:16:00,59.0,58.4,29.90,ESE,112,6.0,7.0,98,0.00,,,0.00,VWS V14.01,2013-05-08 10:16:00,
2013-05-08 06:17:00,59.0,58.4,29.90,ESE,112,5.0,7.0,98,0.00,,,0.00,VWS V14.01,2013-05-08 10:17:00,
2013-05-08 06:18:00,59.0,58.4,29.90,ESE,112,6.0,7.0,98,0.00,,,0.00,VWS V14.01,2013-05-08 10:18:00,
2013-05-08 06:19:00,59.0,58.4,29.90,ESE,112,6.0,6.0,98,0.00,,,0.00,VWS V14.01,2013-05-08 10:19:00,
2013-05-08 06:22:00,59.0,58.4,29.90,ESE,112,5.0,6.0,98,0.00,,,0.00,VWS V14.01,2013-05-08 10:22:00,
2013-05-08 06:23:00,59.0,58.4,29.90,ESE,112,6.0,6.0,98,0.00,,,0.00,VWS V14.01,2013-05-08 10:23:00,
2013-05-08 06:24:00,59.0,58.4,29.91,ESE,112,6.0,6.0,98,0.00,,,0.00,VWS V14.01,2013-05-08 10:24:00,
2013-05-08 06:28:00,59.0,58.4,29.91,ESE,112,5.0,7.0,98,0.00,,,0.00,VWS V14.01,2013-05-08 10:28:00,
2013-05-08 06:29:00,59.0,58.4,29.91,ESE,112,6.0,7.0,98,0.00,,,0.00,VWS V14.01,2013-05-08 10:29:00,
2013-05-08 06:34:00,59.0,58.4,29.91,SE,135,6.0,6.0,98,0.00,,,0.00,VWS V14.01,2013-05-08 10:34:00,
2013-05-08 06:35:00,59.0,58.4,29.91,SE,135,4.0,5.0,98,0.00,,,0.00,VWS V14.01,2013-05-08 10:35:00,
2013-05-08 06:36:00,59.0,58.4,29.91,ESE,112,5.0,6.0,98,0.00,,,0.00,VWS V14.01,2013-05-08 10:36:00,
2013-05-08 06:39:00,59.0,58.4,29.91,ESE,112,6.0,6.0,98,0.00,,,0.00,VWS V14.01,2013-05-08 10:39:00,
2013-05-08 06:41:00,59.0,58.4,29.91,SE,135,2.0,6.0,98,0.00,,,0.00,VWS V14.01,2013-05-08 10:41:00,
2013-05-08 06:44:00,59.0,58.4,29.91,ESE,112,5.0,6.0,98,0.00,,,0.00,VWS V14.01,2013-05-08 10:44:00,
2013-05-08 06:46:00,59.0,58.4,29.91,ESE,112,5.0,5.0,98,0.00,,,0.00,VWS V14.01,2013-05-08 10:46:00,
2013-05-08 06:48:00,59.0,58.4,29.91,ESE,112,4.0,6.0,98,0.00,,,0.00,VWS V14.01,2013-05-08 10:48:00,
2013-05-08 06:50:00,59.0,58.4,29.91,ESE,112,2.0,6.0,98,0.00,,,0.00,VWS V14.01,2013-05-08 10:50:00,
2013-05-08 06:52:00,59.0,58.4,29.91,ESE,112,6.0,6.0,98,0.00,,,0.00,VWS V14.01,2013-05-08 10:52:00,
2013-05-08 06:53:00,59.0,58.4,29.91,ESE,112,4.0,5.0,98,0.00,,,0.00,VWS V14.01,2013-05-08 10:53:00,
2013-05-08 06:54:00,60.0,59.4,29.91,SE,135,5.0,6.0,98,0.00,,,0.00,VWS V14.01,2013-05-08 10:54:00,
2013-05-08 06:55:00,59.0,58.4,29.91,East,90,3.0,6.0,98,0.00,,,0.00,VWS V14.01,2013-05-08 10:55:00,
2013-05-08 06:58:00,60.0,58.4,29.91,ESE,112,7.0,8.0,98,0.00,,,0.00,VWS V14.01,2013-05-08 10:58:00,
2013-05-08 06:59:00,59.0,58.4,29.91,ESE,112,7.0,8.0,98,0.00,,,0.00,VWS V14.01,2013-05-08 10:59:00,
2013-05-08 07:00:00,59.0,58.4,29.91,ESE,112,6.0,6.0,98,0.00,,,0.00,VWS V14.01,2013-05-08 11:00:00,
2013-05-08 07:02:00,59.0,58.4,29.91,ESE,112,8.0,8.0,98,0.00,,,0.00,VWS V14.01,2013-05-08 11:02:00,
2013-05-08 07:03:00,60.0,59.4,29.92,ESE,112,5.0,6.0,98,0.00,,,0.00,VWS V14.01,2013-05-08 11:03:00,
2013-05-08 07:04:00,60.0,59.4,29.92,ESE,112,5.0,6.0,98,0.00,,,0.00,VWS V14.01,2013-05-08 11:04:00,
2013-05-08 07:06:00,60.0,59.4,29.92,East,90,5.0,6.0,98,0.00,,,0.00,VWS V14.01,2013-05-08 11:06:00,
2013-05-08 07:07:00,60.0,59.4,29.92,ESE,112,5.0,6.0,98,0.00,,,0.00,VWS V14.01,2013-05-08 11:07:00,
2013-05-08 07:09:00,60.0,59.4,29.92,ESE,112,6.0,7.0,98,0.00,,,0.00,VWS V14.01,2013-05-08 11:09:00,
2013-05-08 07:12:00,60.0,59.4,29.92,ESE,112,6.0,6.0,98,0.00,,,0.00,VWS V14.01,2013-05-08 11:12:00,
2013-05-08 07:13:00,60.0,59.4,29.92,ESE,112,6.0,6.0,98,0.00,,,0.00,VWS V14.01,2013-05-08 11:13:00,
2013-05-08 07:14:00,60.0,59.4,29.92,East,90,6.0,6.0,98,0.00,,,0.00,VWS V14.01,2013-05-08 11:14:00,
2013-05-08 07:17:00,60.0,59.4,29.92,East,90,5.0,9.0,98,0.00,,,0.00,VWS V14.01,2013-05-08 11:17:00,
2013-05-08 07:18:00,60.0,59.4,29.92,ESE,112,3.0,4.0,98,0.00,,,0.00,VWS V14.01,2013-05-08 11:18:00,
2013-05-08 07:19:00,60.0,59.4,29.92,ESE,112,4.0,5.0,98,0.00,,,0.00,VWS V14.01,2013-05-08 11:19:00,
2013-05-08 07:20:00,60.0,59.4,29.92,East,90,6.0,6.0,98,0.00,,,0.00,VWS V14.01,2013-05-08 11:20:00,
2013-05-08 07:22:00,60.0,59.4,29.92,ESE,112,3.0,5.0,98,0.00,,,0.00,VWS V14.01,2013-05-08 11:22:00,
2013-05-08 07:23:00,60.0,59.4,29.92,ESE,112,6.0,7.0,98,0.00,,,0.00,VWS V14.01,2013-05-08 11:23:00,
2013-05-08 07:24:00,60.0,59.4,29.92,ESE,112,7.0,7.0,98,0.00,,,0.00,VWS V14.01,2013-05-08 11:24:00,
2013-05-08 07:25:00,60.0,59.4,29.92,ESE,112,4.0,7.0,98,0.00,,,0.00,VWS V14.01,2013-05-08 11:25:00,
2013-05-08 07:27:00,60.0,59.4,29.92,ESE,112,6.0,7.0,98,0.00,,,0.00,VWS V14.01,2013-05-08 11:27:00,
2013-05-08 07:28:00,60.0,59.4,29.92,ESE,112,6.0,7.0,98,0.00,,,0.00,VWS V14.01,2013-05-08 11:28:00,
2013-05-08 07:30:00,60.0,59.4,29.92,ESE,112,4.0,7.0,98,0.00,,,0.00,VWS V14.01,2013-05-08 11:30:00,
2013-05-08 07:32:00,60.0,59.4,29.92,SE,135,5.0,6.0,98,0.00,,,0.00,VWS V14.01,2013-05-08 11:32:00,
2013-05-08 07:33:00,60.0,59.4,29.92,ESE,112,5.0,6.0,98,0.00,,,0.00,VWS V14.01,2013-05-08 11:33:00,
2013-05-08 07:35:00,60.0,59.4,29.92,ESE,112,5.0,7.0,98,0.00,,,0.00,VWS V14.01,2013-05-08 11:35:00,
2013-05-08 07:37:00,60.0,59.4,29.92,ESE,112,5.0,6.0,98,0.00,,,0.00,VWS V14.01,2013-05-08 11:37:00,
2013-05-08 07:38:00,60.0,59.4,29.92,East,90,4.0,6.0,98,0.00,,,0.00,VWS V14.01,2013-05-08 11:38:00,
2013-05-08 07:40:00,60.0,59.4,29.92,East,90,6.0,6.0,98,0.00,,,0.00,VWS V14.01,2013-05-08 11:40:00,
2013-05-08 07:42:00,60.0,59.4,29.92,ESE,112,6.0,6.0,98,0.00,,,0.00,VWS V14.01,2013-05-08 11:42:00,
2013-05-08 07:43:00,60.0,59.4,29.92,ESE,112,8.0,8.0,98,0.00,,,0.00,VWS V14.01,2013-05-08 11:43:00,
2013-05-08 07:44:00,61.0,60.4,29.92,ESE,112,8.0,9.0,98,0.00,,,0.00,VWS V14.01,2013-05-08 11:44:00,
2013-05-08 07:45:00,61.0,60.4,29.92,East,90,5.0,6.0,98,0.00,,,0.00,VWS V14.01,2013-05-08 11:45:00,
2013-05-08 07:46:00,61.0,60.4,29.92,ESE,112,6.0,6.0,98,0.00,,,0.00,VWS V14.01,2013-05-08 11:46:00,
2013-05-08 07:48:00,61.0,60.4,29.92,ESE,112,7.0,7.0,98,0.00,,,0.00,VWS V14.01,2013-05-08 11:48:00,
2013-05-08 07:49:00,61.0,60.4,29.92,SE,135,5.0,7.0,98,0.00,,,0.00,VWS V14.01,2013-05-08 11:49:00,
2013-05-08 07:50:00,61.0,60.4,29.92,ESE,112,6.0,6.0,98,0.00,,,0.00,VWS V14.01,2013-05-08 11:50:00,
2013-05-08 07:51:00,61.0,60.4,29.92,ESE,112,6.0,7.0,98,0.00,,,0.00,VWS V14.01,2013-05-08 11:51:00,
2013-05-08 07:52:00,61.0,60.4,29.92,ESE,112,5.0,8.0,98,0.00,,,0.00,VWS V14.01,2013-05-08 11:52:00,
2013-05-08 07:53:00,61.0,60.4,29.92,ESE,112,7.0,9.0,98,0.00,,,0.00,VWS V14.01,2013-05-08 11:53:00,
2013-05-08 07:54:00,61.0,60.4,29.92,ESE,112,10.0,11.0,98,0.00,,,0.00,VWS V14.01,2013-05-08 11:54:00,
2013-05-08 07:56:00,61.0,60.4,29.92,ESE,112,7.0,8.0,98,0.00,,,0.00,VWS V14.01,2013-05-08 11:56:00,
2013-05-08 07:57:00,61.0,60.4,29.92,SE,135,5.0,7.0,98,0.00,,,0.00,VWS V14.01,2013-05-08 11:57:00,
2013-05-08 07:58:00,61.0,60.4,29.92,ESE,112,5.0,7.0,98,0.00,,,0.00,VWS V14.01,2013-05-08 11:58:00,
2013-05-08 08:00:00,61.0,60.4,29.92,SE,135,7.0,8.0,98,0.00,,,0.00,VWS V14.01,2013-05-08 12:00:00,
2013-05-08 08:01:00,61.0,60.4,29.92,ESE,112,8.0,10.0,98,0.00,,,0.00,VWS V14.01,2013-05-08 12:01:00,
2013-05-08 08:02:00,61.0,60.4,29.92,ESE,112,6.0,10.0,98,0.00,,,0.00,VWS V14.01,2013-05-08 12:02:00,
2013-05-08 08:04:00,62.0,61.4,29.92,SE,135,4.0,9.0,98,0.00,,,0.00,VWS V14.01,2013-05-08 12:04:00,
2013-05-08 08:06:00,62.0,61.4,29.92,SE,135,7.0,7.0,98,0.00,,,0.00,VWS V14.01,2013-05-08 12:06:00,
2013-05-08 08:08:00,61.0,60.4,29.92,ESE,112,7.0,9.0,98,0.00,,,0.00,VWS V14.01,2013-05-08 12:08:00,
2013-05-08 08:09:00,61.0,60.4,29.92,ESE,112,8.0,10.0,98,0.00,,,0.00,VWS V14.01,2013-05-08 12:09:00,
2013-05-08 08:10:00,61.0,60.4,29.92,ESE,112,7.0,7.0,98,0.00,,,0.00,VWS V14.01,2013-05-08 12:10:00,
2013-05-08 08:11:00,61.0,60.4,29.92,ESE,112,9.0,9.0,98,0.00,,,0.00,VWS V14.01,2013-05-08 12:11:00,
2013-05-08 08:13:00,62.0,61.4,29.92,ESE,112,7.0,9.0,98,0.00,,,0.00,VWS V14.01,2013-05-08 12:13:00,
2013-05-08 08:15:00,62.0,61.4,29.92,ESE,112,6.0,7.0,98,0.00,,,0.00,VWS V14.01,2013-05-08 12:15:00,
2013-05-08 08:16:00,62.0,61.4,29.92,ESE,112,7.0,7.0,98,0.00,,,0.00,VWS V14.01,2013-05-08 12:16:00,
2013-05-08 08:18:00,62.0,61.4,29.92,ESE,112,8.0,9.0,98,0.00,,,0.00,VWS V14.01,2013-05-08 12:18:00,
2013-05-08 08:19:00,62.0,61.4,29.92,SSE,157,3.0,9.0,98,0.00,,,0.00,VWS V14.01,2013-05-08 12:19:00,
2013-05-08 08:22:00,62.0,61.4,29.92,ESE,112,10.0,10.0,98,0.00,,,0.00,VWS V14.01,2013-05-08 12:22:00,
2013-05-08 08:23:00,63.0,62.4,29.92,ESE,112,8.0,8.0,98,0.00,,,0.00,VWS V14.01,2013-05-08 12:23:00,
2013-05-08 08:24:00,63.0,62.4,29.92,ESE,112,7.0,9.0,98,0.00,,,0.00,VWS V14.01,2013-05-08 12:24:00,
2013-05-08 08:26:00,63.0,62.4,29.92,ESE,112,8.0,9.0,98,0.00,,,0.00,VWS V14.01,2013-05-08 12:26:00,
2013-05-08 08:28:00,63.0,62.4,29.92,ESE,112,6.0,6.0,98,0.00,,,0.00,VWS V14.01,2013-05-08 12:28:00,
2013-05-08 08:29:00,63.0,62.4,29.92,SSE,157,5.0,7.0,98,0.00,,,0.00,VWS V14.01,2013-05-08 12:29:00,
2013-05-08 08:31:00,63.0,62.4,29.92,SE,135,5.0,5.0,98,0.00,,,0.00,VWS V14.01,2013-05-08 12:31:00,
2013-05-08 08:33:00,64.0,63.4,29.92,ESE,112,7.0,8.0,98,0.00,,,0.00,VWS V14.01,2013-05-08 12:33:00,
2013-05-08 08:34:00,64.0,63.4,29.92,ESE,112,8.0,9.0,98,0.00,,,0.00,VWS V14.01,2013-05-08 12:34:00,
2013-05-08 08:36:00,64.0,63.4,29.92,ESE,112,6.0,7.0,98,0.00,,,0.00,VWS V14.01,2013-05-08 12:36:00,
2013-05-08 08:38:00,64.0,63.1,29.92,SE,135,5.0,8.0,97,0.00,,,0.00,VWS V14.01,2013-05-08 12:38:00,
2013-05-08 08:40:00,64.0,62.8,29.92,East,90,7.0,9.0,96,0.00,,,0.00,VWS V14.01,2013-05-08 12:40:00,
2013-05-08 08:43:00,64.0,62.5,29.92,SE,135,6.0,7.0,95,0.00,,,0.00,VWS V14.01,2013-05-08 12:43:00,
2013-05-08 08:44:00,65.0,63.8,29.92,South,180,6.0,7.0,96,0.00,,,0.00,VWS V14.01,2013-05-08 12:44:00,
2013-05-08 08:46:00,64.0,61.9,29.92,ESE,112,7.0,10.0,93,0.00,,,0.00,VWS V14.01,2013-05-08 12:46:00,
2013-05-08 08:48:00,65.0,63.2,29.92,ESE,112,7.0,8.0,94,0.00,,,0.00,VWS V14.01,2013-05-08 12:48:00,
2013-05-08 08:50:00,64.0,61.9,29.92,ESE,112,3.0,9.0,93,0.00,,,0.00,VWS V14.01,2013-05-08 12:50:00,
2013-05-08 08:51:00,65.0,63.2,29.92,SE,135,3.0,5.0,94,0.00,,,0.00,VWS V14.01,2013-05-08 12:51:00,
2013-05-08 08:53:00,65.0,63.2,29.92,SW,225,6.0,6.0,94,0.00,,,0.00,VWS V14.01,2013-05-08 12:53:00,
2013-05-08 08:55:00,65.0,63.2,29.92,SE,135,6.0,6.0,94,0.00,,,0.00,VWS V14.01,2013-05-08 12:55:00,
2013-05-08 08:56:00,66.0,64.5,29.92,SSW,202,5.0,6.0,95,0.00,,,0.00,VWS V14.01,2013-05-08 12:56:00,
2013-05-08 08:57:00,66.0,63.6,29.92,ESE,112,5.0,6.0,92,0.00,,,0.00,VWS V14.01,2013-05-08 12:57:00,
2013-05-08 08:58:00,66.0,63.6,29.92,ESE,112,6.0,7.0,92,0.00,,,0.00,VWS V14.01,2013-05-08 12:58:00,
2013-05-08 08:59:00,66.0,63.3,29.92,SE,135,3.0,7.0,91,0.00,,,0.00,VWS V14.01,2013-05-08 12:59:00,
2013-05-08 09:02:00,66.0,63.3,29.92,South,180,10.0,10.0,91,0.00,,,0.00,VWS V14.01,2013-05-08 13:02:00,
2013-05-08 09:03:00,66.0,63.0,29.92,ESE,112,6.0,6.0,90,0.00,,,0.00,VWS V14.01,2013-05-08 13:03:00,
2013-05-08 09:04:00,67.0,64.0,29.92,ESE,112,6.0,7.0,90,0.00,,,0.00,VWS V14.01,2013-05-08 13:04:00,
2013-05-08 09:05:00,67.0,64.0,29.92,South,180,6.0,9.0,90,0.00,,,0.00,VWS V14.01,2013-05-08 13:05:00,
2013-05-08 09:07:00,67.0,63.3,29.92,SW,225,8.0,8.0,88,0.00,,,0.00,VWS V14.01,2013-05-08 13:07:00,
2013-05-08 09:08:00,67.0,63.0,29.92,SSE,157,6.0,6.0,87,0.00,,,0.00,VWS V14.01,2013-05-08 13:08:00,
2013-05-08 09:09:00,67.0,63.3,29.92,ESE,112,3.0,4.0,88,0.00,,,0.00,VWS V14.01,2013-05-08 13:09:00,
2013-05-08 09:10:00,68.0,63.7,29.92,South,180,6.0,7.0,86,0.00,,,0.00,VWS V14.01,2013-05-08 13:10:00,
2013-05-08 09:12:00,67.0,62.7,29.92,SSW,202,7.0,9.0,86,0.00,,,0.00,VWS V14.01,2013-05-08 13:12:00,
2013-05-08 09:14:00,68.0,63.3,29.92,SSW,202,8.0,8.0,85,0.00,,,0.00,VWS V14.01,2013-05-08 13:14:00,
2013-05-08 09:15:00,67.0,62.0,29.92,SE,135,7.0,11.0,84,0.00,,,0.00,VWS V14.01,2013-05-08 13:15:00,
2013-05-08 09:16:00,67.0,62.0,29.92,SE,135,6.0,11.0,84,0.00,,,0.00,VWS V14.01,2013-05-08 13:16:00,
2013-05-08 09:19:00,67.0,62.3,29.92,South,180,6.0,7.0,85,0.00,,,0.00,VWS V14.01,2013-05-08 13:19:00,
2013-05-08 09:20:00,68.0,63.0,29.92,SSE,157,7.0,12.0,84,0.00,,,0.00,VWS V14.01,2013-05-08 13:20:00,
2013-05-08 09:21:00,68.0,63.0,29.92,SSE,157,4.0,5.0,84,0.00,,,0.00,VWS V14.01,2013-05-08 13:21:00,
2013-05-08 09:22:00,67.0,61.7,29.92,SE,135,6.0,7.0,83,0.00,,,0.00,VWS V14.01,2013-05-08 13:22:00,
2013-05-08 09:24:00,68.0,63.0,29.92,South,180,11.0,11.0,84,0.00,,,0.00,VWS V14.01,2013-05-08 13:24:00,
2013-05-08 09:25:00,67.0,61.7,29.92,SE,135,8.0,11.0,83,0.00,,,0.00,VWS V14.01,2013-05-08 13:25:00,
2013-05-08 09:27:00,67.0,62.0,29.92,SE,135,7.0,9.0,84,0.00,,,0.00,VWS V14.01,2013-05-08 13:27:00,
2013-05-08 09:29:00,67.0,62.0,29.92,SE,135,11.0,11.0,84,0.00,,,0.00,VWS V14.01,2013-05-08 13:29:00,
2013-05-08 09:30:00,67.0,61.7,29.92,SE,135,7.0,11.0,83,0.00,,,0.00,VWS V14.01,2013-05-08 13:30:00,
2013-05-08 09:32:00,68.0,62.3,29.92,SE,135,9.0,11.0,82,0.00,,,0.00,VWS V14.01,2013-05-08 13:32:00,
2013-05-08 09:33:00,68.0,62.7,29.92,SSE,157,9.0,9.0,83,0.00,,,0.00,VWS V14.01,2013-05-08 13:33:00,
2013-05-08 09:34:00,68.0,62.7,29.93,SE,135,6.0,11.0,83,0.00,,,0.00,VWS V14.01,2013-05-08 13:34:00,
2013-05-08 09:35:00,68.0,62.7,29.93,SE,135,7.0,11.0,83,0.00,,,0.00,VWS V14.01,2013-05-08 13:35:00,
2013-05-08 09:37:00,68.0,62.3,29.93,SSE,157,4.0,6.0,82,0.00,,,0.00,VWS V14.01,2013-05-08 13:37:00,
2013-05-08 09:39:00,68.0,62.0,29.93,SE,135,9.0,10.0,81,0.00,,,0.00,VWS V14.01,2013-05-08 13:39:00,
2013-05-08 09:40:00,68.0,62.0,29.93,SE,135,6.0,9.0,81,0.00,,,0.00,VWS V14.01,2013-05-08 13:40:00,
2013-05-08 09:43:00,68.0,62.3,29.93,SE,135,7.0,11.0,82,0.00,,,0.00,VWS V14.01,2013-05-08 13:43:00,
2013-05-08 09:44:00,68.0,62.0,29.94,SE,135,7.0,9.0,81,0.00,,,0.00,VWS V14.01,2013-05-08 13:44:00,
2013-05-08 09:45:00,68.0,62.0,29.94,SE,135,11.0,11.0,81,0.00,,,0.00,VWS V14.01,2013-05-08 13:45:00,
2013-05-08 09:46:00,68.0,62.0,29.94,SE,135,7.0,17.0,81,0.00,,,0.00,VWS V14.01,2013-05-08 13:46:00,
2013-05-08 09:49:00,68.0,62.0,29.94,SE,135,9.0,10.0,81,0.00,,,0.00,VWS V14.01,2013-05-08 13:49:00,
2013-05-08 09:50:00,68.0,62.3,29.94,ESE,112,7.0,13.0,82,0.00,,,0.00,VWS V14.01,2013-05-08 13:50:00,
2013-05-08 09:51:00,68.0,62.0,29.94,SE,135,7.0,10.0,81,0.00,,,0.00,VWS V14.01,2013-05-08 13:51:00,
2013-05-08 09:52:00,68.0,62.0,29.94,SSE,157,10.0,11.0,81,0.00,,,0.00,VWS V14.01,2013-05-08 13:52:00,
2013-05-08 09:56:00,68.0,62.0,29.94,SE,135,8.0,10.0,81,0.00,,,0.00,VWS V14.01,2013-05-08 13:56:00,
2013-05-08 09:57:00,68.0,62.0,29.94,SE,135,7.0,12.0,81,0.00,,,0.00,VWS V14.01,2013-05-08 13:57:00,
2013-05-08 10:02:00,68.0,62.0,29.94,SSE,157,7.0,11.0,81,0.00,,,0.00,VWS V14.01,2013-05-08 14:02:00,
2013-05-08 10:03:00,68.0,62.0,29.94,SE,135,6.0,8.0,81,0.00,,,0.00,VWS V14.01,2013-05-08 14:03:00,
2013-05-08 10:05:00,69.0,62.6,29.94,ESE,112,6.0,6.0,80,0.00,,,0.00,VWS V14.01,2013-05-08 14:05:00,
2013-05-08 10:08:00,69.0,62.2,29.94,SSE,157,4.0,13.0,79,0.00,,,0.00,VWS V14.01,2013-05-08 14:08:00,
2013-05-08 10:09:00,69.0,62.2,29.94,SW,225,4.0,9.0,79,0.00,,,0.00,VWS V14.01,2013-05-08 14:09:00,
2013-05-08 10:10:00,69.0,62.2,29.94,South,180,4.0,9.0,79,0.00,,,0.00,VWS V14.01,2013-05-08 14:10:00,
2013-05-08 10:14:00,69.0,62.6,29.93,ESE,112,6.0,6.0,80,0.00,,,0.00,VWS V14.01,2013-05-08 14:14:00,
2013-05-08 10:15:00,69.0,62.2,29.93,SE,135,9.0,12.0,79,0.00,,,0.00,VWS V14.01,2013-05-08 14:15:00,
2013-05-08 10:16:00,69.0,62.2,29.93,SE,135,7.0,14.0,79,0.00,,,0.00,VWS V14.01,2013-05-08 14:16:00,
2013-05-08 10:17:00,69.0,62.6,29.93,ESE,112,6.0,10.0,80,0.00,,,0.00,VWS V14.01,2013-05-08 14:17:00,
2013-05-08 10:19:00,69.0,62.2,29.93,ESE,112,9.0,12.0,79,0.00,,,0.00,VWS V14.01,2013-05-08 14:19:00,
2013-05-08 10:21:00,69.0,62.2,29.93,SE,135,8.0,12.0,79,0.00,,,0.00,VWS V14.01,2013-05-08 14:21:00,
2013-05-08 10:22:00,68.0,61.6,29.93,SE,135,7.0,9.0,80,0.00,,,0.00,VWS V14.01,2013-05-08 14:22:00,
2013-05-08 10:23:00,69.0,62.6,29.93,ESE,112,9.0,12.0,80,0.00,,,0.00,VWS V14.01,2013-05-08 14:23:00,
2013-05-08 10:24:00,68.0,61.6,29.94,SE,135,10.0,16.0,80,0.00,,,0.00,VWS V14.01,2013-05-08 14:24:00,
2013-05-08 10:27:00,68.0,62.0,29.94,SE,135,7.0,10.0,81,0.00,,,0.00,VWS V14.01,2013-05-08 14:27:00,
2013-05-08 10:28:00,68.0,61.6,29.94,SE,135,11.0,16.0,80,0.00,,,0.00,VWS V14.01,2013-05-08 14:28:00,
2013-05-08 10:29:00,68.0,62.0,29.94,South,180,9.0,12.0,81,0.00,,,0.00,VWS V14.01,2013-05-08 14:29:00,
2013-05-08 10:32:00,68.0,61.6,29.94,SE,135,7.0,11.0,80,0.00,,,0.00,VWS V14.01,2013-05-08 14:32:00,
2013-05-08 10:33:00,68.0,62.0,29.94,SSE,157,4.0,9.0,81,0.00,,,0.00,VWS V14.01,2013-05-08 14:33:00,
2013-05-08 10:35:00,68.0,62.0,29.94,SSE,157,10.0,13.0,81,0.00,,,0.00,VWS V14.01,2013-05-08 14:35:00,
2013-05-08 10:36:00,68.0,62.0,29.94,SSE,157,5.0,11.0,81,0.00,,,0.00,VWS V14.01,2013-05-08 14:36:00,
2013-05-08 10:37:00,68.0,62.3,29.94,SE,135,7.0,12.0,82,0.00,,,0.00,VWS V14.01,2013-05-08 14:37:00,
2013-05-08 10:38:00,67.0,61.3,29.94,SE,135,9.0,10.0,82,0.00,,,0.00,VWS V14.01,2013-05-08 14:38:00,
2013-05-08 10:41:00,67.0,61.7,29.94,SE,135,10.0,16.0,83,0.00,,,0.00,VWS V14.01,2013-05-08 14:41:00,
2013-05-08 10:43:00,68.0,62.3,29.94,SE,135,6.0,14.0,82,0.00,,,0.00,VWS V14.01,2013-05-08 14:43:00,
2013-05-08 10:44:00,68.0,62.3,29.94,SE,135,9.0,14.0,82,0.00,,,0.00,VWS V14.01,2013-05-08 14:44:00,
2013-05-08 10:47:00,67.0,61.3,29.94,SE,135,7.0,9.0,82,0.00,,,0.00,VWS V14.01,2013-05-08 14:47:00,
2013-05-08 10:48:00,67.0,61.3,29.94,SE,135,11.0,16.0,82,0.00,,,0.00,VWS V14.01,2013-05-08 14:48:00,
2013-05-08 10:49:00,68.0,62.3,29.94,SE,135,6.0,7.0,82,0.00,,,0.00,VWS V14.01,2013-05-08 14:49:00,
2013-05-08 10:51:00,68.0,62.0,29.94,SE,135,6.0,6.0,81,0.00,,,0.00,VWS V14.01,2013-05-08 14:51:00,
2013-05-08 10:52:00,68.0,62.0,29.94,ESE,112,6.0,10.0,81,0.00,,,0.00,VWS V14.01,2013-05-08 14:52:00,
2013-05-08 10:53:00,68.0,62.0,29.94,SE,135,7.0,7.0,81,0.00,,,0.00,VWS V14.01,2013-05-08 14:53:00,
2013-05-08 10:55:00,68.0,62.0,29.94,ESE,112,6.0,14.0,81,0.00,,,0.00,VWS V14.01,2013-05-08 14:55:00,
2013-05-08 10:56:00,68.0,62.3,29.94,SE,135,6.0,14.0,82,0.00,,,0.00,VWS V14.01,2013-05-08 14:56:00,
2013-05-08 10:58:00,69.0,62.6,29.94,ESE,112,9.0,10.0,80,0.00,,,0.00,VWS V14.01,2013-05-08 14:58:00,
2013-05-08 10:59:00,69.0,62.6,29.94,SE,135,10.0,13.0,80,0.00,,,0.00,VWS V14.01,2013-05-08 14:59:00,
2013-05-08 11:01:00,68.0,61.2,29.94,SE,135,10.0,16.0,79,0.00,,,0.00,VWS V14.01,2013-05-08 15:01:00,
2013-05-08 11:02:00,68.0,62.0,29.94,SSE,157,10.0,15.0,81,0.00,,,0.00,VWS V14.01,2013-05-08 15:02:00,
2013-05-08 11:03:00,69.0,62.6,29.93,SE,135,4.0,9.0,80,0.00,,,0.00,VWS V14.01,2013-05-08 15:03:00,
2013-05-08 11:04:00,69.0,62.6,29.93,ESE,112,7.0,16.0,80,0.00,,,0.00,VWS V14.01,2013-05-08 15:04:00,
2013-05-08 11:05:00,69.0,62.6,29.93,SE,135,9.0,13.0,80,0.00,,,0.00,VWS V14.01,2013-05-08 15:05:00,
2013-05-08 11:07:00,69.0,62.2,29.93,SE,135,11.0,15.0,79,0.00,,,0.00,VWS V14.01,2013-05-08 15:07:00,
2013-05-08 11:09:00,68.0,62.0,29.93,SE,135,9.0,16.0,81,0.00,,,0.00,VWS V14.01,2013-05-08 15:09:00,
2013-05-08 11:10:00,68.0,62.0,29.93,SE,135,8.0,11.0,81,0.00,,,0.00,VWS V14.01,2013-05-08 15:10:00,
2013-05-08 11:11:00,68.0,61.6,29.93,SSE,157,10.0,12.0,80,0.00,,,0.00,VWS V14.01,2013-05-08 15:11:00,
2013-05-08 11:12:00,68.0,61.6,29.93,South,180,6.0,12.0,80,0.00,,,0.00,VWS V14.01,2013-05-08 15:12:00,
2013-05-08 11:15:00,68.0,62.0,29.94,SE,135,7.0,13.0,81,0.00,,,0.00,VWS V14.01,2013-05-08 15:15:00,
2013-05-08 11:16:00,68.0,62.0,29.94,SE,135,9.0,13.0,81,0.00,,,0.00,VWS V14.01,2013-05-08 15:16:00,
2013-05-08 11:18:00,68.0,61.6,29.94,ESE,112,6.0,6.0,80,0.00,,,0.00,VWS V14.01,2013-05-08 15:18:00,
2013-05-08 11:20:00,68.0,61.6,29.94,SE,135,10.0,13.0,80,0.00,,,0.00,VWS V14.01,2013-05-08 15:20:00,
2013-05-08 11:21:00,68.0,61.6,29.94,ESE,112,9.0,14.0,80,0.00,,,0.00,VWS V14.01,2013-05-08 15:21:00,
2013-05-08 11:22:00,68.0,61.6,29.94,SSE,157,6.0,14.0,80,0.00,,,0.00,VWS V14.01,2013-05-08 15:22:00,
2013-05-08 11:23:00,68.0,61.2,29.93,SE,135,12.0,12.0,79,0.00,,,0.00,VWS V14.01,2013-05-08 15:23:00,
2013-05-08 11:25:00,68.0,61.2,29.93,SSE,157,10.0,17.0,79,0.00,,,0.00,VWS V14.01,2013-05-08 15:25:00,
2013-05-08 11:27:00,68.0,61.2,29.93,ESE,112,5.0,12.0,79,0.00,,,0.00,VWS V14.01,2013-05-08 15:27:00,
2013-05-08 11:28:00,69.0,61.9,29.93,SE,135,9.0,15.0,78,0.00,,,0.00,VWS V14.01,2013-05-08 15:28:00,
2013-05-08 11:29:00,68.0,61.2,29.93,SE,135,11.0,13.0,79,0.00,,,0.00,VWS V14.01,2013-05-08 15:29:00,
2013-05-08 11:31:00,69.0,61.9,29.93,ESE,112,13.0,13.0,78,0.00,,,0.00,VWS V14.01,2013-05-08 15:31:00,
2013-05-08 11:33:00,68.0,61.2,29.93,SE,135,9.0,13.0,79,0.00,,,0.00,VWS V14.01,2013-05-08 15:33:00,
2013-05-08 11:35:00,69.0,62.2,29.92,SE,135,7.0,11.0,79,0.00,,,0.00,VWS V14.01,2013-05-08 15:35:00,
2013-05-08 11:36:00,69.0,62.2,29.92,ESE,112,7.0,9.0,79,0.00,,,0.00,VWS V14.01,2013-05-08 15:36:00,
2013-05-08 11:37:00,69.0,61.9,29.92,SSE,157,13.0,17.0,78,0.00,,,0.00,VWS V14.01,2013-05-08 15:37:00,
2013-05-08 11:38:00,69.0,61.9,29.92,ESE,112,12.0,17.0,78,0.00,,,0.00,VWS V14.01,2013-05-08 15:38:00,
2013-05-08 11:41:00,68.0,60.9,29.92,SE,135,9.0,15.0,78,0.00,,,0.00,VWS V14.01,2013-05-08 15:41:00,
2013-05-08 11:43:00,68.0,60.9,29.92,ESE,112,9.0,13.0,78,0.00,,,0.00,VWS V14.01,2013-05-08 15:43:00,
2013-05-08 11:44:00,68.0,61.2,29.93,SSE,157,7.0,15.0,79,0.00,,,0.00,VWS V14.01,2013-05-08 15:44:00,
2013-05-08 11:45:00,68.0,61.2,29.93,SSE,157,9.0,10.0,79,0.00,,,0.00,VWS V14.01,2013-05-08 15:45:00,
2013-05-08 11:48:00,68.0,61.2,29.93,South,180,11.0,12.0,79,0.00,,,0.00,VWS V14.01,2013-05-08 15:48:00,
2013-05-08 11:49:00,68.0,61.2,29.93,SSE,157,7.0,13.0,79,0.00,,,0.00,VWS V14.01,2013-05-08 15:49:00,
2013-05-08 11:50:00,68.0,61.2,29.93,SE,135,9.0,12.0,79,0.00,,,0.00,VWS V14.01,2013-05-08 15:50:00,
2013-05-08 11:52:00,68.0,60.9,29.93,SE,135,6.0,14.0,78,0.00,,,0.00,VWS V14.01,2013-05-08 15:52:00,
2013-05-08 11:54:00,69.0,61.9,29.92,SE,135,8.0,12.0,78,0.00,,,0.00,VWS V14.01,2013-05-08 15:54:00,
2013-05-08 11:56:00,69.0,61.5,29.92,SSE,157,7.0,14.0,77,0.00,,,0.00,VWS V14.01,2013-05-08 15:56:00,
2013-05-08 11:57:00,69.0,61.9,29.92,SE,135,10.0,14.0,78,0.00,,,0.00,VWS V14.01,2013-05-08 15:57:00,
2013-05-08 11:58:00,69.0,61.9,29.92,ESE,112,10.0,12.0,78,0.00,,,0.00,VWS V14.01,2013-05-08 15:58:00,
2013-05-08 12:01:00,69.0,61.5,29.92,ESE,112,8.0,11.0,77,0.00,,,0.00,VWS V14.01,2013-05-08 16:01:00,
2013-05-08 12:02:00,69.0,61.9,29.92,SE,135,9.0,13.0,78,0.00,,,0.00,VWS V14.01,2013-05-08 16:02:00,
2013-05-08 12:03:00,69.0,61.5,29.92,South,180,11.0,16.0,77,0.00,,,0.00,VWS V14.01,2013-05-08 16:03:00,
2013-05-08 12:05:00,69.0,60.9,29.92,SE,135,13.0,16.0,77,0.00,,,0.00,VWS V14.01,2013-05-08 16:05:00,
2013-05-08 12:06:00,68.0,60.9,29.92,SSE,157,9.0,16.0,78,0.00,,,0.00,VWS V14.01,2013-05-08 16:06:00,
2013-05-08 12:07:00,68.0,60.9,29.92,SE,135,8.0,13.0,78,0.00,,,0.00,VWS V14.01,2013-05-08 16:07:00,
2013-05-08 12:08:00,68.0,60.9,29.92,SE,135,8.0,8.0,78,0.00,,,0.00,VWS V14.01,2013-05-08 16:08:00,
2013-05-08 12:11:00,69.0,61.9,29.92,SE,135,9.0,9.0,78,0.00,,,0.00,VWS V14.01,2013-05-08 16:11:00,
2013-05-08 12:12:00,68.0,60.9,29.92,ESE,112,6.0,13.0,78,0.00,,,0.00,VWS V14.01,2013-05-08 16:12:00,
2013-05-08 12:13:00,68.0,60.9,29.92,ESE,112,9.0,10.0,78,0.00,,,0.00,VWS V14.01,2013-05-08 16:13:00,
2013-05-08 12:14:00,69.0,62.2,29.91,ESE,112,6.0,8.0,79,0.00,,,0.00,VWS V14.01,2013-05-08 16:14:00,
2013-05-08 12:17:00,68.0,60.9,29.91,SE,135,7.0,12.0,78,0.00,,,0.00,VWS V14.01,2013-05-08 16:17:00,
2013-05-08 12:18:00,69.0,61.9,29.91,SE,135,8.0,12.0,78,0.00,,,0.00,VWS V14.01,2013-05-08 16:18:00,
2013-05-08 12:19:00,69.0,61.5,29.91,SE,135,8.0,12.0,77,0.00,,,0.00,VWS V14.01,2013-05-08 16:19:00,
2013-05-08 12:22:00,69.0,61.5,29.91,ESE,112,4.0,10.0,77,0.00,,,0.00,VWS V14.01,2013-05-08 16:22:00,
2013-05-08 12:23:00,69.0,61.9,29.91,ESE,112,9.0,14.0,77,0.00,,,0.00,VWS V14.01,2013-05-08 16:23:00,
2013-05-08 12:25:00,69.0,61.5,29.91,SE,135,7.0,10.0,77,0.00,,,0.00,VWS V14.01,2013-05-08 16:25:00,
2013-05-08 12:26:00,69.0,61.5,29.91,SE,135,6.0,10.0,77,0.00,,,0.00,VWS V14.01,2013-05-08 16:26:00,
2013-05-08 12:28:00,69.0,61.1,29.91,SE,135,12.0,12.0,76,0.00,,,0.00,VWS V14.01,2013-05-08 16:28:00,
2013-05-08 12:29:00,69.0,61.1,29.91,SE,135,6.0,12.0,76,0.00,,,0.00,VWS V14.01,2013-05-08 16:29:00,
2013-05-08 12:31:00,69.0,61.1,29.91,SE,135,7.0,10.0,76,0.00,,,0.00,VWS V14.01,2013-05-08 16:31:00,
2013-05-08 12:33:00,69.0,61.5,29.91,SE,135,9.0,9.0,77,0.00,,,0.00,VWS V14.01,2013-05-08 16:33:00,
2013-05-08 12:34:00,69.0,61.1,29.90,ESE,112,5.0,14.0,76,0.00,,,0.00,VWS V14.01,2013-05-08 16:34:00,
2013-05-08 12:36:00,70.0,62.1,29.90,SE,135,6.0,6.0,76,0.00,,,0.00,VWS V14.01,2013-05-08 16:36:00,
2013-05-08 12:37:00,70.0,61.7,29.90,SSE,157,8.0,12.0,75,0.00,,,0.00,VWS V14.01,2013-05-08 16:37:00,
2013-05-08 12:39:00,70.0,61.3,29.90,SE,135,6.0,9.0,74,0.00,,,0.00,VWS V14.01,2013-05-08 16:39:00,
2013-05-08 12:41:00,70.0,61.7,29.90,SE,135,6.0,12.0,75,0.00,,,0.00,VWS V14.01,2013-05-08 16:41:00,
2013-05-08 12:42:00,69.0,60.8,29.90,South,180,9.0,12.0,75,0.00,,,0.00,VWS V14.01,2013-05-08 16:42:00,
2013-05-08 12:43:00,69.0,61.5,29.91,ESE,112,10.0,13.0,77,0.00,,,0.00,VWS V14.01,2013-05-08 16:43:00,
2013-05-08 12:44:00,69.0,61.5,29.91,ESE,112,7.0,13.0,77,0.00,,,0.00,VWS V14.01,2013-05-08 16:44:00,
2013-05-08 12:45:00,69.0,61.5,29.91,SE,135,8.0,13.0,77,0.00,,,0.00,VWS V14.01,2013-05-08 16:45:00,
2013-05-08 12:47:00,69.0,61.5,29.91,SSE,157,9.0,14.0,77,0.00,,,0.00,VWS V14.01,2013-05-08 16:47:00,
2013-05-08 12:48:00,69.0,61.9,29.91,SE,135,7.0,9.0,78,0.00,,,0.00,VWS V14.01,2013-05-08 16:48:00,
2013-05-08 12:50:00,69.0,61.5,29.91,SSE,157,6.0,11.0,77,0.00,,,0.00,VWS V14.01,2013-05-08 16:50:00,
2013-05-08 12:53:00,69.0,61.5,29.91,SE,135,6.0,16.0,77,0.00,,,0.00,VWS V14.01,2013-05-08 16:53:00,
2013-05-08 12:54:00,68.0,60.5,29.91,ESE,112,7.0,12.0,77,0.00,,,0.00,VWS V14.01,2013-05-08 16:54:00,
2013-05-08 12:55:00,69.0,61.5,29.91,SSE,157,10.0,14.0,77,0.00,,,0.00,VWS V14.01,2013-05-08 16:55:00,
2013-05-08 12:56:00,69.0,61.1,29.91,ESE,112,10.0,14.0,76,0.00,,,0.00,VWS V14.01,2013-05-08 16:56:00,
2013-05-08 12:57:00,69.0,61.1,29.91,SSE,157,6.0,9.0,76,0.00,,,0.00,VWS V14.01,2013-05-08 16:57:00,
2013-05-08 12:58:00,69.0,60.8,29.91,ESE,112,9.0,9.0,75,0.00,,,0.00,VWS V14.01,2013-05-08 16:58:00,
2013-05-08 13:01:00,69.0,61.1,29.91,SE,135,8.0,12.0,76,0.00,,,0.00,VWS V14.01,2013-05-08 17:01:00,
2013-05-08 13:02:00,69.0,61.1,29.91,SE,135,6.0,12.0,76,0.00,,,0.00,VWS V14.01,2013-05-08 17:02:00,
2013-05-08 13:03:00,69.0,61.1,29.91,SE,135,9.0,9.0,76,0.00,,,0.00,VWS V14.01,2013-05-08 17:03:00,
2013-05-08 13:06:00,69.0,61.1,29.90,SE,135,13.0,13.0,76,0.00,,,0.00,VWS V14.01,2013-05-08 17:06:00,
2013-05-08 13:07:00,69.0,61.1,29.90,SE,135,9.0,13.0,76,0.00,,,0.00,VWS V14.01,2013-05-08 17:07:00,
2013-05-08 13:08:00,69.0,61.1,29.90,SE,135,9.0,13.0,76,0.00,,,0.00,VWS V14.01,2013-05-08 17:08:00,
2013-05-08 13:12:00,68.0,60.9,29.90,SE,135,7.0,9.0,78,0.00,,,0.00,VWS V14.01,2013-05-08 17:12:00,
2013-05-08 13:13:00,68.0,60.9,29.90,SSE,157,7.0,7.0,78,0.00,,,0.00,VWS V14.01,2013-05-08 17:13:00,
2013-05-08 13:14:00,69.0,61.9,29.90,SSE,157,10.0,10.0,78,0.00,,,0.00,VWS V14.01,2013-05-08 17:14:00,
2013-05-08 13:17:00,68.0,60.9,29.90,SSE,157,6.0,8.0,78,0.00,,,0.00,VWS V14.01,2013-05-08 17:17:00,
2013-05-08 13:18:00,68.0,60.9,29.90,ESE,112,7.0,10.0,78,0.00,,,0.00,VWS V14.01,2013-05-08 17:18:00,
2013-05-08 13:19:00,68.0,60.9,29.90,SE,135,9.0,9.0,78,0.00,,,0.00,VWS V14.01,2013-05-08 17:19:00,
2013-05-08 13:21:00,68.0,61.2,29.90,SE,135,8.0,13.0,79,0.00,,,0.00,VWS V14.01,2013-05-08 17:21:00,
2013-05-08 13:23:00,68.0,61.2,29.90,ESE,112,6.0,7.0,79,0.00,,,0.00,VWS V14.01,2013-05-08 17:23:00,
2013-05-08 13:25:00,68.0,61.2,29.90,ESE,112,7.0,12.0,79,0.00,,,0.00,VWS V14.01,2013-05-08 17:25:00,
2013-05-08 13:26:00,68.0,61.2,29.90,SSE,157,17.0,20.0,79,0.00,,,0.00,VWS V14.01,2013-05-08 17:26:00,
2013-05-08 13:27:00,68.0,60.9,29.90,ESE,112,10.0,20.0,78,0.00,,,0.00,VWS V14.01,2013-05-08 17:27:00,
2013-05-08 13:28:00,68.0,61.2,29.90,ESE,112,7.0,9.0,79,0.00,,,0.00,VWS V14.01,2013-05-08 17:28:00,
2013-05-08 13:29:00,68.0,60.9,29.90,SE,135,12.0,15.0,78,0.00,,,0.00,VWS V14.01,2013-05-08 17:29:00,
2013-05-08 13:31:00,68.0,61.6,29.90,ESE,112,8.0,12.0,80,0.00,,,0.00,VWS V14.01,2013-05-08 17:31:00,
2013-05-08 13:32:00,68.0,61.6,29.90,ESE,112,9.0,16.0,80,0.00,,,0.00,VWS V14.01,2013-05-08 17:32:00,
2013-05-08 13:34:00,68.0,61.6,29.89,ESE,112,11.0,13.0,80,0.00,,,0.00,VWS V14.01,2013-05-08 17:34:00,
2013-05-08 13:35:00,68.0,61.6,29.89,SE,135,10.0,16.0,80,0.00,,,0.00,VWS V14.01,2013-05-08 17:35:00,
2013-05-08 13:36:00,68.0,61.6,29.89,ESE,112,15.0,16.0,80,0.00,,,0.00,VWS V14.01,2013-05-08 17:36:00,
2013-05-08 13:38:00,68.0,61.6,29.89,SSE,157,5.0,7.0,80,0.00,,,0.00,VWS V14.01,2013-05-08 17:38:00,
2013-05-08 13:39:00,68.0,62.0,29.89,ESE,112,9.0,13.0,81,0.00,,,0.00,VWS V14.01,2013-05-08 17:39:00,
2013-05-08 13:40:00,68.0,61.6,29.89,East,90,10.0,12.0,80,0.00,,,0.00,VWS V14.01,2013-05-08 17:40:00,
2013-05-08 13:44:00,68.0,61.2,29.89,SSE,157,11.0,13.0,79,0.00,,,0.00,VWS V14.01,2013-05-08 17:44:00,
2013-05-08 13:45:00,68.0,61.2,29.89,ESE,112,10.0,15.0,79,0.00,,,0.00,VWS V14.01,2013-05-08 17:45:00,
2013-05-08 13:49:00,69.0,62.2,29.89,SSE,157,7.0,15.0,79,0.00,,,0.00,VWS V14.01,2013-05-08 17:49:00,
2013-05-08 13:50:00,68.0,61.2,29.89,ESE,112,7.0,13.0,79,0.00,,,0.00,VWS V14.01,2013-05-08 17:50:00,
2013-05-08 13:55:00,69.0,61.9,29.88,SSW,202,6.0,9.0,78,0.00,,,0.00,VWS V14.01,2013-05-08 17:55:00,
2013-05-08 13:56:00,69.0,61.9,29.88,South,180,13.0,14.0,78,0.00,,,0.00,VWS V14.01,2013-05-08 17:56:00,
2013-05-08 13:57:00,69.0,61.9,29.88,SSE,157,12.0,12.0,78,0.00,,,0.00,VWS V14.01,2013-05-08 17:57:00,
2013-05-08 14:01:00,69.0,61.9,29.88,ESE,112,10.0,16.0,78,0.00,,,0.00,VWS V14.01,2013-05-08 18:01:00,
2013-05-08 14:02:00,69.0,61.9,29.88,South,180,8.0,12.0,78,0.00,,,0.00,VWS V14.01,2013-05-08 18:02:00,
2013-05-08 14:03:00,69.0,61.9,29.88,SE,135,7.0,14.0,78,0.00,,,0.00,VWS V14.01,2013-05-08 18:03:00,
2013-05-08 14:04:00,68.0,60.9,29.89,SE,135,10.0,12.0,78,0.00,,,0.00,VWS V14.01,2013-05-08 18:04:00,
2013-05-08 14:07:00,68.0,61.2,29.89,ESE,112,8.0,16.0,79,0.00,,,0.00,VWS V14.01,2013-05-08 18:07:00,
2013-05-08 14:08:00,68.0,61.2,29.89,SSW,202,6.0,7.0,79,0.00,,,0.00,VWS V14.01,2013-05-08 18:08:00,
2013-05-08 14:09:00,68.0,61.2,29.89,ESE,112,7.0,10.0,79,0.00,,,0.00,VWS V14.01,2013-05-08 18:09:00,
2013-05-08 14:10:00,68.0,61.2,29.89,SE,135,7.0,13.0,79,0.00,,,0.00,VWS V14.01,2013-05-08 18:10:00,
2013-05-08 14:12:00,67.0,60.6,29.89,SE,135,9.0,12.0,80,0.00,,,0.00,VWS V14.01,2013-05-08 18:12:00,
2013-05-08 14:14:00,67.0,61.0,29.90,ESE,112,9.0,12.0,81,0.00,,,0.00,VWS V14.01,2013-05-08 18:14:00,
2013-05-08 14:15:00,67.0,61.0,29.90,SSE,157,8.0,12.0,81,0.00,,,0.00,VWS V14.01,2013-05-08 18:15:00,
2013-05-08 14:16:00,67.0,61.3,29.90,ESE,112,8.0,10.0,82,0.00,,,0.00,VWS V14.01,2013-05-08 18:16:00,
2013-05-08 14:18:00,67.0,61.3,29.90,ESE,112,7.0,10.0,82,0.00,,,0.00,VWS V14.01,2013-05-08 18:18:00,
2013-05-08 14:20:00,67.0,61.3,29.90,ESE,112,9.0,13.0,82,0.00,,,0.00,VWS V14.01,2013-05-08 18:20:00,
2013-05-08 14:22:00,67.0,61.7,29.90,ESE,112,10.0,10.0,83,0.00,,,0.00,VWS V14.01,2013-05-08 18:22:00,
2013-05-08 14:23:00,67.0,61.7,29.90,ESE,112,10.0,12.0,83,0.00,,,0.00,VWS V14.01,2013-05-08 18:23:00,
2013-05-08 14:24:00,67.0,61.7,29.89,ESE,112,12.0,12.0,83,0.00,,,0.00,VWS V14.01,2013-05-08 18:24:00,
2013-05-08 14:25:00,67.0,61.7,29.89,ESE,112,9.0,9.0,83,0.00,,,0.00,VWS V14.01,2013-05-08 18:25:00,
2013-05-08 14:26:00,67.0,61.7,29.89,ESE,112,8.0,12.0,83,0.00,,,0.00,VWS V14.01,2013-05-08 18:26:00,
2013-05-08 14:28:00,67.0,61.7,29.89,ESE,112,9.0,12.0,83,0.00,,,0.00,VWS V14.01,2013-05-08 18:28:00,
2013-05-08 14:30:00,67.0,61.7,29.89,SE,135,7.0,10.0,83,0.00,,,0.00,VWS V14.01,2013-05-08 18:30:00,
2013-05-08 14:31:00,67.0,61.7,29.89,ESE,112,9.0,11.0,83,0.00,,,0.00,VWS V14.01,2013-05-08 18:31:00,
2013-05-08 14:32:00,67.0,62.0,29.89,ESE,112,12.0,13.0,84,0.00,,,0.00,VWS V14.01,2013-05-08 18:32:00,
2013-05-08 14:34:00,67.0,61.7,29.88,ESE,112,14.0,14.0,83,0.00,,,0.00,VWS V14.01,2013-05-08 18:34:00,
2013-05-08 14:35:00,67.0,61.7,29.88,ESE,112,11.0,13.0,83,0.00,,,0.00,VWS V14.01,2013-05-08 18:35:00,
2013-05-08 14:37:00,67.0,61.7,29.88,SE,135,7.0,10.0,83,0.00,,,0.00,VWS V14.01,2013-05-08 18:37:00,
2013-05-08 14:38:00,67.0,61.7,29.88,ESE,112,9.0,10.0,83,0.00,,,0.00,VWS V14.01,2013-05-08 18:38:00,
2013-05-08 14:40:00,67.0,61.7,29.88,ESE,112,12.0,12.0,83,0.00,,,0.00,VWS V14.01,2013-05-08 18:40:00,
2013-05-08 14:42:00,67.0,61.7,29.88,ESE,112,6.0,14.0,83,0.00,,,0.00,VWS V14.01,2013-05-08 18:42:00,
2013-05-08 14:43:00,67.0,61.7,29.88,ESE,112,12.0,12.0,83,0.00,,,0.00,VWS V14.01,2013-05-08 18:43:00,
2013-05-08 14:45:00,67.0,61.7,29.87,ESE,112,7.0,12.0,83,0.00,,,0.00,VWS V14.01,2013-05-08 18:45:00,
2013-05-08 14:46:00,67.0,61.7,29.87,ESE,112,7.0,12.0,83,0.00,,,0.00,VWS V14.01,2013-05-08 18:46:00,
2013-05-08 14:47:00,67.0,61.7,29.87,ESE,112,8.0,9.0,83,0.00,,,0.00,VWS V14.01,2013-05-08 18:47:00,
2013-05-08 14:49:00,67.0,61.7,29.87,ESE,112,9.0,11.0,83,0.00,,,0.00,VWS V14.01,2013-05-08 18:49:00,
2013-05-08 14:50:00,67.0,61.7,29.87,SE,135,8.0,9.0,83,0.00,,,0.00,VWS V14.01,2013-05-08 18:50:00,
2013-05-08 14:51:00,67.0,61.7,29.87,ESE,112,12.0,16.0,83,0.00,,,0.00,VWS V14.01,2013-05-08 18:51:00,
2013-05-08 14:52:00,67.0,62.0,29.87,SE,135,10.0,13.0,84,0.00,,,0.00,VWS V14.01,2013-05-08 18:52:00,
2013-05-08 14:53:00,67.0,62.0,29.87,SE,135,7.0,7.0,84,0.00,,,0.00,VWS V14.01,2013-05-08 18:53:00,
2013-05-08 14:54:00,67.0,62.0,29.87,SE,135,14.0,14.0,84,0.00,,,0.00,VWS V14.01,2013-05-08 18:54:00,
2013-05-08 14:56:00,66.0,61.0,29.87,SE,135,6.0,14.0,84,0.00,,,0.00,VWS V14.01,2013-05-08 18:56:00,
2013-05-08 14:59:00,66.0,61.0,29.87,SE,135,10.0,14.0,84,0.00,,,0.00,VWS V14.01,2013-05-08 18:59:00,
2013-05-08 15:00:00,66.0,61.0,29.87,ESE,112,10.0,12.0,84,0.00,,,0.00,VWS V14.01,2013-05-08 19:00:00,
2013-05-08 15:02:00,66.0,61.0,29.87,ESE,112,9.0,11.0,84,0.00,,,0.00,VWS V14.01,2013-05-08 19:02:00,
2013-05-08 15:05:00,66.0,61.0,29.86,ESE,112,9.0,11.0,84,0.00,,,0.00,VWS V14.01,2013-05-08 19:05:00,
2013-05-08 15:06:00,66.0,61.0,29.86,ESE,112,13.0,13.0,84,0.00,,,0.00,VWS V14.01,2013-05-08 19:06:00,
2013-05-08 15:10:00,66.0,61.0,29.86,ESE,112,7.0,12.0,84,0.00,,,0.00,VWS V14.01,2013-05-08 19:10:00,
2013-05-08 15:11:00,66.0,61.0,29.86,ESE,112,12.0,12.0,84,0.00,,,0.00,VWS V14.01,2013-05-08 19:11:00,
2013-05-08 15:12:00,66.0,61.0,29.86,ESE,112,7.0,10.0,84,0.00,,,0.00,VWS V14.01,2013-05-08 19:12:00,
2013-05-08 15:15:00,66.0,61.4,29.87,ESE,112,8.0,10.0,85,0.00,,,0.00,VWS V14.01,2013-05-08 19:15:00,
2013-05-08 15:16:00,66.0,61.4,29.87,ESE,112,8.0,12.0,85,0.00,,,0.00,VWS V14.01,2013-05-08 19:16:00,
2013-05-08 15:17:00,66.0,61.4,29.87,ESE,112,8.0,11.0,85,0.00,,,0.00,VWS V14.01,2013-05-08 19:17:00,
2013-05-08 15:18:00,66.0,61.4,29.87,ESE,112,10.0,12.0,85,0.00,,,0.00,VWS V14.01,2013-05-08 19:18:00,
2013-05-08 15:19:00,66.0,61.7,29.87,ESE,112,8.0,13.0,86,0.00,,,0.00,VWS V14.01,2013-05-08 19:19:00,
2013-05-08 15:20:00,66.0,61.7,29.87,SE,135,9.0,12.0,86,0.00,,,0.00,VWS V14.01,2013-05-08 19:20:00,
2013-05-08 15:22:00,66.0,61.4,29.87,SE,135,10.0,10.0,85,0.00,,,0.00,VWS V14.01,2013-05-08 19:22:00,
2013-05-08 15:23:00,65.0,60.7,29.87,ESE,112,10.0,13.0,86,0.00,,,0.00,VWS V14.01,2013-05-08 19:23:00,
2013-05-08 15:24:00,66.0,61.7,29.87,ESE,112,9.0,13.0,86,0.00,,,0.00,VWS V14.01,2013-05-08 19:24:00,
2013-05-08 15:25:00,66.0,61.7,29.87,SE,135,10.0,13.0,86,0.00,,,0.00,VWS V14.01,2013-05-08 19:25:00,
2013-05-08 15:27:00,66.0,61.7,29.87,SE,135,10.0,10.0,86,0.00,,,0.00,VWS V14.01,2013-05-08 19:27:00,
2013-05-08 15:29:00,66.0,61.4,29.87,East,90,4.0,9.0,85,0.00,,,0.00,VWS V14.01,2013-05-08 19:29:00,
2013-05-08 15:30:00,66.0,61.4,29.87,ESE,112,7.0,9.0,85,0.00,,,0.00,VWS V14.01,2013-05-08 19:30:00,
2013-05-08 15:31:00,66.0,61.4,29.87,East,90,6.0,7.0,85,0.00,,,0.00,VWS V14.01,2013-05-08 19:31:00,
2013-05-08 15:34:00,66.0,61.4,29.86,SE,135,13.0,13.0,85,0.00,,,0.00,VWS V14.01,2013-05-08 19:34:00,
2013-05-08 15:35:00,66.0,61.4,29.86,SE,135,4.0,13.0,85,0.00,,,0.00,VWS V14.01,2013-05-08 19:35:00,
2013-05-08 15:36:00,66.0,61.0,29.86,SE,135,10.0,12.0,84,0.00,,,0.00,VWS V14.01,2013-05-08 19:36:00,
2013-05-08 15:37:00,66.0,61.4,29.86,SSE,157,12.0,14.0,85,0.00,,,0.00,VWS V14.01,2013-05-08 19:37:00,
2013-05-08 15:38:00,66.0,61.4,29.86,SE,135,9.0,12.0,85,0.00,,,0.00,VWS V14.01,2013-05-08 19:38:00,
2013-05-08 15:40:00,66.0,61.4,29.86,ESE,112,10.0,12.0,85,0.00,,,0.00,VWS V14.01,2013-05-08 19:40:00,
2013-05-08 15:42:00,66.0,61.4,29.86,SE,135,8.0,9.0,85,0.00,,,0.00,VWS V14.01,2013-05-08 19:42:00,
2013-05-08 15:43:00,66.0,61.0,29.86,SSE,157,14.0,14.0,84,0.00,,,0.00,VWS V14.01,2013-05-08 19:43:00,
2013-05-08 15:45:00,66.0,61.0,29.87,SE,135,13.0,13.0,84,0.00,,,0.00,VWS V14.01,2013-05-08 19:45:00,
2013-05-08 15:46:00,66.0,61.0,29.87,South,180,11.0,13.0,84,0.00,,,0.00,VWS V14.01,2013-05-08 19:46:00,
2013-05-08 15:47:00,66.0,61.0,29.87,South,180,9.0,12.0,84,0.00,,,0.00,VWS V14.01,2013-05-08 19:47:00,
2013-05-08 15:48:00,66.0,61.0,29.87,SE,135,9.0,10.0,84,0.00,,,0.00,VWS V14.01,2013-05-08 19:48:00,
2013-05-08 15:51:00,66.0,61.4,29.87,ESE,112,13.0,13.0,85,0.00,,,0.00,VWS V14.01,2013-05-08 19:51:00,
2013-05-08 15:52:00,66.0,61.4,29.87,ESE,112,12.0,13.0,85,0.00,,,0.00,VWS V14.01,2013-05-08 19:52:00,
2013-05-08 15:53:00,66.0,61.4,29.87,East,90,11.0,13.0,85,0.00,,,0.00,VWS V14.01,2013-05-08 19:53:00,
2013-05-08 15:54:00,66.0,61.4,29.86,SE,135,9.0,12.0,85,0.00,,,0.00,VWS V14.01,2013-05-08 19:54:00,
2013-05-08 15:57:00,66.0,61.4,29.86,SE,135,10.0,14.0,85,0.00,,,0.00,VWS V14.01,2013-05-08 19:57:00,
2013-05-08 15:58:00,66.0,61.4,29.86,ESE,112,9.0,13.0,85,0.00,,,0.00,VWS V14.01,2013-05-08 19:58:00,
2013-05-08 15:59:00,66.0,61.0,29.86,SSE,157,10.0,10.0,84,0.00,,,0.00,VWS V14.01,2013-05-08 19:59:00,
2013-05-08 16:02:00,66.0,61.0,29.86,ESE,112,9.0,12.0,84,0.00,,,0.00,VWS V14.01,2013-05-08 20:02:00,
2013-05-08 16:04:00,66.0,61.0,29.87,SE,135,10.0,12.0,84,0.00,,,0.00,VWS V14.01,2013-05-08 20:04:00,
2013-05-08 16:07:00,66.0,61.0,29.87,SE,135,7.0,16.0,84,0.00,,,0.00,VWS V14.01,2013-05-08 20:07:00,
2013-05-08 16:09:00,66.0,61.0,29.87,SE,135,8.0,15.0,84,0.00,,,0.00,VWS V14.01,2013-05-08 20:09:00,
2013-05-08 16:10:00,66.0,61.0,29.87,ESE,112,12.0,12.0,84,0.00,,,0.00,VWS V14.01,2013-05-08 20:10:00,
2013-05-08 16:12:00,66.0,61.0,29.87,SE,135,9.0,10.0,84,0.00,,,0.00,VWS V14.01,2013-05-08 20:12:00,
2013-05-08 16:13:00,66.0,61.0,29.87,SE,135,6.0,7.0,84,0.00,,,0.00,VWS V14.01,2013-05-08 20:13:00,
2013-05-08 16:15:00,65.0,60.7,29.87,SE,135,13.0,15.0,86,0.00,,,0.00,VWS V14.01,2013-05-08 20:15:00,
2013-05-08 16:16:00,65.0,60.7,29.87,SSE,157,8.0,15.0,86,0.00,,,0.00,VWS V14.01,2013-05-08 20:16:00,
2013-05-08 16:18:00,65.0,60.7,29.87,SE,135,11.0,12.0,86,0.00,,,0.00,VWS V14.01,2013-05-08 20:18:00,
2013-05-08 16:21:00,65.0,60.7,29.87,SE,135,7.0,14.0,86,0.00,,,0.00,VWS V14.01,2013-05-08 20:21:00,
2013-05-08 16:23:00,65.0,60.7,29.87,SE,135,16.0,17.0,86,0.00,,,0.00,VWS V14.01,2013-05-08 20:23:00,
2013-05-08 16:24:00,65.0,61.0,29.87,ESE,112,7.0,17.0,87,0.00,,,0.00,VWS V14.01,2013-05-08 20:24:00,
2013-05-08 16:26:00,65.0,61.0,29.87,SE,135,8.0,12.0,87,0.00,,,0.00,VWS V14.01,2013-05-08 20:26:00,
2013-05-08 16:27:00,65.0,61.0,29.87,ESE,112,4.0,11.0,87,0.00,,,0.00,VWS V14.01,2013-05-08 20:27:00,
2013-05-08 16:29:00,65.0,61.4,29.87,SE,135,11.0,15.0,88,0.00,,,0.00,VWS V14.01,2013-05-08 20:29:00,
2013-05-08 16:30:00,65.0,61.4,29.87,SE,135,14.0,15.0,88,0.00,,,0.00,VWS V14.01,2013-05-08 20:30:00,
2013-05-08 16:32:00,64.0,60.1,29.87,SE,135,12.0,12.0,87,0.00,,,0.00,VWS V14.01,2013-05-08 20:32:00,
2013-05-08 16:34:00,65.0,61.4,29.86,SE,135,10.0,12.0,88,0.00,,,0.00,VWS V14.01,2013-05-08 20:34:00,
2013-05-08 16:35:00,64.0,60.1,29.86,SSE,157,9.0,15.0,87,0.00,,,0.00,VWS V14.01,2013-05-08 20:35:00,
2013-05-08 16:37:00,64.0,60.4,29.86,SE,135,6.0,12.0,88,0.00,,,0.00,VWS V14.01,2013-05-08 20:37:00,
2013-05-08 16:40:00,64.0,60.4,29.86,ESE,112,9.0,15.0,88,0.00,,,0.00,VWS V14.01,2013-05-08 20:40:00,
2013-05-08 16:41:00,64.0,60.4,29.86,SE,135,6.0,12.0,88,0.00,,,0.00,VWS V14.01,2013-05-08 20:41:00,
2013-05-08 16:43:00,64.0,60.4,29.86,SE,135,9.0,15.0,88,0.00,,,0.00,VWS V14.01,2013-05-08 20:43:00,
2013-05-08 16:46:00,64.0,60.4,29.87,SE,135,7.0,12.0,88,0.00,,,0.00,VWS V14.01,2013-05-08 20:46:00,
2013-05-08 16:49:00,64.0,60.4,29.87,ESE,112,9.0,13.0,88,0.00,,,0.00,VWS V14.01,2013-05-08 20:49:00,
2013-05-08 16:50:00,64.0,60.4,29.87,South,180,6.0,12.0,88,0.00,,,0.00,VWS V14.01,2013-05-08 20:50:00,
2013-05-08 16:53:00,64.0,60.4,29.86,South,180,6.0,17.0,88,0.00,,,0.00,VWS V14.01,2013-05-08 20:53:00,
2013-05-08 16:54:00,64.0,60.4,29.86,SE,135,5.0,17.0,88,0.00,,,0.00,VWS V14.01,2013-05-08 20:54:00,
2013-05-08 16:55:00,64.0,60.4,29.86,ESE,112,7.0,10.0,88,0.00,,,0.00,VWS V14.01,2013-05-08 20:55:00,
2013-05-08 16:59:00,64.0,60.1,29.86,SE,135,7.0,11.0,87,0.00,,,0.00,VWS V14.01,2013-05-08 20:59:00,
2013-05-08 17:00:00,64.0,59.7,29.86,SE,135,12.0,12.0,86,0.00,,,0.00,VWS V14.01,2013-05-08 21:00:00,
2013-05-08 17:04:00,65.0,61.0,29.85,ESE,112,8.0,8.0,87,0.00,,,0.00,VWS V14.01,2013-05-08 21:04:00,
2013-05-08 17:05:00,65.0,61.0,29.85,SE,135,9.0,11.0,87,0.00,,,0.00,VWS V14.01,2013-05-08 21:05:00,
2013-05-08 17:06:00,65.0,59.4,29.85,ESE,112,7.0,13.0,87,0.00,,,0.00,VWS V14.01,2013-05-08 21:06:00,
2013-05-08 17:11:00,65.0,60.7,29.85,SE,135,6.0,9.0,86,0.00,,,0.00,VWS V14.01,2013-05-08 21:11:00,
2013-05-08 17:12:00,65.0,60.7,29.85,SE,135,9.0,9.0,86,0.00,,,0.00,VWS V14.01,2013-05-08 21:12:00,
2013-05-08 17:13:00,65.0,60.4,29.85,SE,135,6.0,9.0,86,0.00,,,0.00,VWS V14.01,2013-05-08 21:13:00,
2013-05-08 17:14:00,65.0,60.4,29.85,ESE,112,6.0,7.0,85,0.00,,,0.00,VWS V14.01,2013-05-08 21:14:00,
2013-05-08 17:17:00,64.0,59.4,29.85,ESE,112,10.0,12.0,85,0.00,,,0.00,VWS V14.01,2013-05-08 21:17:00,
2013-05-08 17:19:00,64.0,59.4,29.85,ESE,112,9.0,10.0,85,0.00,,,0.00,VWS V14.01,2013-05-08 21:19:00,
2013-05-08 17:20:00,64.0,59.4,29.85,SE,135,7.0,8.0,85,0.00,,,0.00,VWS V14.01,2013-05-08 21:20:00,
2013-05-08 17:23:00,64.0,59.7,29.85,SSE,157,7.0,9.0,86,0.00,,,0.00,VWS V14.01,2013-05-08 21:23:00,
2013-05-08 17:24:00,64.0,59.4,29.85,SSE,157,9.0,10.0,86,0.00,,,0.00,VWS V14.01,2013-05-08 21:24:00,
2013-05-08 17:25:00,64.0,59.4,29.85,SE,135,6.0,12.0,85,0.00,,,0.00,VWS V14.01,2013-05-08 21:25:00,
2013-05-08 17:26:00,64.0,59.4,29.85,ESE,112,7.0,7.0,85,0.00,,,0.00,VWS V14.01,2013-05-08 21:26:00,
2013-05-08 17:27:00,64.0,59.4,29.85,ESE,112,7.0,12.0,85,0.00,,,0.00,VWS V14.01,2013-05-08 21:27:00,
2013-05-08 17:28:00,64.0,59.4,29.85,ESE,112,6.0,7.0,85,0.00,,,0.00,VWS V14.01,2013-05-08 21:28:00,
2013-05-08 17:29:00,64.0,59.4,29.85,ESE,112,9.0,10.0,85,0.00,,,0.00,VWS V14.01,2013-05-08 21:29:00,
2013-05-08 17:31:00,64.0,59.4,29.85,ESE,112,7.0,8.0,85,0.00,,,0.00,VWS V14.01,2013-05-08 21:31:00,
2013-05-08 17:32:00,64.0,59.7,29.85,ESE,112,6.0,9.0,86,0.00,,,0.00,VWS V14.01,2013-05-08 21:32:00,
2013-05-08 17:33:00,64.0,59.7,29.85,ESE,112,9.0,12.0,86,0.00,,,0.00,VWS V14.01,2013-05-08 21:33:00,
2013-05-08 17:34:00,64.0,59.4,29.84,ESE,112,9.0,12.0,86,0.00,,,0.00,VWS V14.01,2013-05-08 21:34:00,
2013-05-08 17:36:00,64.0,59.7,29.84,ESE,112,9.0,9.0,86,0.00,,,0.00,VWS V14.01,2013-05-08 21:36:00,
2013-05-08 17:39:00,64.0,59.7,29.84,ESE,112,9.0,9.0,86,0.00,,,0.00,VWS V14.01,2013-05-08 21:39:00,
2013-05-08 17:40:00,64.0,59.7,29.84,ESE,112,8.0,8.0,86,0.00,,,0.00,VWS V14.01,2013-05-08 21:40:00,
2013-05-08 17:41:00,64.0,59.4,29.84,ESE,112,7.0,9.0,86,0.00,,,0.00,VWS V14.01,2013-05-08 21:41:00,
2013-05-08 17:42:00,64.0,59.4,29.84,ESE,112,7.0,10.0,85,0.00,,,0.00,VWS V14.01,2013-05-08 21:42:00,
2013-05-08 17:44:00,64.0,59.4,29.84,SE,135,3.0,9.0,86,0.00,,,0.00,VWS V14.01,2013-05-08 21:44:00,
2013-05-08 17:45:00,64.0,59.4,29.84,SE,135,7.0,9.0,85,0.00,,,0.00,VWS V14.01,2013-05-08 21:45:00,
2013-05-08 17:46:00,64.0,59.4,29.84,ESE,112,6.0,9.0,85,0.00,,,0.00,VWS V14.01,2013-05-08 21:46:00,
2013-05-08 17:48:00,64.0,59.4,29.84,ESE,112,7.0,10.0,86,0.00,,,0.00,VWS V14.01,2013-05-08 21:48:00,
2013-05-08 17:50:00,64.0,59.4,29.84,SE,135,9.0,10.0,85,0.00,,,0.00,VWS V14.01,2013-05-08 21:50:00,
2013-05-08 17:51:00,64.0,59.4,29.84,ESE,112,10.0,10.0,85,0.00,,,0.00,VWS V14.01,2013-05-08 21:51:00,
2013-05-08 17:52:00,64.0,59.4,29.84,ESE,112,5.0,10.0,85,0.00,,,0.00,VWS V14.01,2013-05-08 21:52:00,
2013-05-08 17:55:00,64.0,59.4,29.83,East,90,9.0,9.0,85,0.00,,,0.00,VWS V14.01,2013-05-08 21:55:00,
2013-05-08 17:56:00,64.0,59.4,29.83,ESE,112,8.0,9.0,85,0.00,,,0.00,VWS V14.01,2013-05-08 21:56:00,
2013-05-08 17:58:00,64.0,59.4,29.83,ESE,112,8.0,9.0,85,0.00,,,0.00,VWS V14.01,2013-05-08 21:58:00,
2013-05-08 18:01:00,64.0,59.4,29.83,SSE,157,6.0,9.0,85,0.00,,,0.00,VWS V14.01,2013-05-08 22:01:00,
2013-05-08 18:02:00,64.0,59.4,29.83,ESE,112,10.0,12.0,85,0.00,,,0.00,VWS V14.01,2013-05-08 22:02:00,
2013-05-08 18:03:00,64.0,59.4,29.83,ESE,112,10.0,12.0,85,0.00,,,0.00,VWS V14.01,2013-05-08 22:03:00,
2013-05-08 18:04:00,64.0,59.1,29.83,ESE,112,8.0,10.0,84,0.00,,,0.00,VWS V14.01,2013-05-08 22:04:00,
2013-05-08 18:05:00,65.0,60.4,29.83,ESE,112,7.0,8.0,85,0.00,,,0.00,VWS V14.01,2013-05-08 22:05:00,
2013-05-08 18:07:00,64.0,59.1,29.83,SE,135,10.0,10.0,84,0.00,,,0.00,VWS V14.01,2013-05-08 22:07:00,
2013-05-08 18:10:00,64.0,59.1,29.83,SE,135,7.0,8.0,84,0.00,,,0.00,VWS V14.01,2013-05-08 22:10:00,
2013-05-08 18:12:00,64.0,59.1,29.83,SE,135,3.0,3.0,84,0.00,,,0.00,VWS V14.01,2013-05-08 22:12:00,
2013-05-08 18:13:00,64.0,59.1,29.83,ESE,112,7.0,9.0,84,0.00,,,0.00,VWS V14.01,2013-05-08 22:13:00,
2013-05-08 18:15:00,64.0,59.1,29.83,ESE,112,9.0,9.0,84,0.00,,,0.00,VWS V14.01,2013-05-08 22:15:00,
2013-05-08 18:16:00,64.0,59.4,29.83,ESE,112,9.0,9.0,85,0.00,,,0.00,VWS V14.01,2013-05-08 22:16:00,
2013-05-08 18:18:00,64.0,59.4,29.83,ESE,112,8.0,14.0,85,0.00,,,0.00,VWS V14.01,2013-05-08 22:18:00,
2013-05-08 18:19:00,64.0,59.4,29.83,SE,135,7.0,10.0,85,0.00,,,0.00,VWS V14.01,2013-05-08 22:19:00,
2013-05-08 18:20:00,64.0,59.4,29.83,ESE,112,6.0,7.0,85,0.00,,,0.00,VWS V14.01,2013-05-08 22:20:00,
2013-05-08 18:21:00,64.0,59.4,29.83,SE,135,6.0,7.0,85,0.00,,,0.00,VWS V14.01,2013-05-08 22:21:00,
2013-05-08 18:22:00,64.0,59.4,29.83,ESE,112,7.0,11.0,85,0.00,,,0.00,VWS V14.01,2013-05-08 22:22:00,
2013-05-08 18:25:00,64.0,59.4,29.83,ESE,112,8.0,9.0,85,0.00,,,0.00,VWS V14.01,2013-05-08 22:25:00,
2013-05-08 18:26:00,64.0,59.7,29.83,SE,135,6.0,8.0,86,0.00,,,0.00,VWS V14.01,2013-05-08 22:26:00,
2013-05-08 18:27:00,64.0,59.7,29.83,SSW,202,5.0,8.0,86,0.00,,,0.00,VWS V14.01,2013-05-08 22:27:00,
2013-05-08 18:28:00,64.0,59.4,29.83,SE,135,6.0,7.0,85,0.00,,,0.00,VWS V14.01,2013-05-08 22:28:00,
2013-05-08 18:30:00,64.0,59.4,29.83,ESE,112,6.0,10.0,85,0.00,,,0.00,VWS V14.01,2013-05-08 22:30:00,
2013-05-08 18:32:00,64.0,59.7,29.83,SE,135,6.0,9.0,86,0.00,,,0.00,VWS V14.01,2013-05-08 22:32:00,
2013-05-08 18:33:00,64.0,59.7,29.83,SSE,157,6.0,9.0,86,0.00,,,0.00,VWS V14.01,2013-05-08 22:33:00,
2013-05-08 18:34:00,64.0,59.7,29.83,SE,135,7.0,7.0,86,0.00,,,0.00,VWS V14.01,2013-05-08 22:34:00,
2013-05-08 18:36:00,64.0,59.7,29.83,ESE,112,6.0,12.0,86,0.00,,,0.00,VWS V14.01,2013-05-08 22:36:00,
2013-05-08 18:38:00,63.0,59.1,29.83,SE,135,10.0,10.0,87,0.00,,,0.00,VWS V14.01,2013-05-08 22:38:00,
2013-05-08 18:39:00,63.0,59.1,29.83,SE,135,8.0,11.0,87,0.00,,,0.00,VWS V14.01,2013-05-08 22:39:00,
2013-05-08 18:40:00,64.0,60.1,29.83,SE,135,6.0,8.0,87,0.00,,,0.00,VWS V14.01,2013-05-08 22:40:00,
2013-05-08 18:41:00,64.0,60.1,29.83,ESE,112,9.0,9.0,87,0.00,,,0.00,VWS V14.01,2013-05-08 22:41:00,
2013-05-08 18:44:00,64.0,60.4,29.82,SSE,157,7.0,8.0,88,0.00,,,0.00,VWS V14.01,2013-05-08 22:44:00,
2013-05-08 18:45:00,63.0,59.4,29.82,SE,135,8.0,9.0,88,0.00,,,0.00,VWS V14.01,2013-05-08 22:45:00,
2013-05-08 18:46:00,63.0,59.4,29.82,SE,135,7.0,8.0,88,0.00,,,0.00,VWS V14.01,2013-05-08 22:46:00,
2013-05-08 18:47:00,63.0,59.4,29.82,ESE,112,8.0,8.0,88,0.00,,,0.00,VWS V14.01,2013-05-08 22:47:00,
2013-05-08 18:50:00,63.0,59.4,29.82,East,90,9.0,9.0,88,0.00,,,0.00,VWS V14.01,2013-05-08 22:50:00,
2013-05-08 18:51:00,63.0,59.7,29.82,ESE,112,6.0,7.0,89,0.00,,,0.00,VWS V14.01,2013-05-08 22:51:00,
2013-05-08 18:52:00,63.0,59.7,29.82,ESE,112,8.0,11.0,89,0.00,,,0.00,VWS V14.01,2013-05-08 22:52:00,
2013-05-08 18:54:00,63.0,59.7,29.83,ESE,112,6.0,7.0,89,0.00,,,0.00,VWS V14.01,2013-05-08 22:54:00,
2013-05-08 18:55:00,62.0,59.0,29.83,ESE,112,8.0,10.0,90,0.00,,,0.00,VWS V14.01,2013-05-08 22:55:00,
2013-05-08 18:56:00,62.0,59.0,29.83,SE,135,6.0,9.0,90,0.00,,,0.00,VWS V14.01,2013-05-08 22:56:00,
2013-05-08 18:57:00,62.0,59.0,29.83,ESE,112,7.0,10.0,90,0.00,,,0.00,VWS V14.01,2013-05-08 22:57:00,
2013-05-08 18:58:00,62.0,59.0,29.83,ESE,112,9.0,11.0,90,0.00,,,0.00,VWS V14.01,2013-05-08 22:58:00,
2013-05-08 19:00:00,62.0,59.3,29.83,SE,135,6.0,13.0,91,0.00,,,0.00,VWS V14.01,2013-05-08 23:00:00,
2013-05-08 19:01:00,62.0,59.3,29.83,ESE,112,8.0,8.0,91,0.00,,,0.00,VWS V14.01,2013-05-08 23:01:00,
2013-05-08 19:03:00,62.0,59.3,29.83,ESE,112,6.0,7.0,91,0.00,,,0.00,VWS V14.01,2013-05-08 23:03:00,
2013-05-08 19:04:00,62.0,59.3,29.83,ESE,112,8.0,11.0,91,0.00,,,0.00,VWS V14.01,2013-05-08 23:04:00,
2013-05-08 19:05:00,62.0,59.7,29.83,SE,135,5.0,8.0,92,0.00,,,0.00,VWS V14.01,2013-05-08 23:05:00,
2013-05-08 19:08:00,62.0,59.7,29.83,ESE,112,12.0,12.0,92,0.00,,,0.00,VWS V14.01,2013-05-08 23:08:00,
2013-05-08 19:10:00,62.0,59.7,29.83,East,90,10.0,10.0,92,0.00,,,0.00,VWS V14.01,2013-05-08 23:10:00,
2013-05-08 19:11:00,62.0,59.7,29.83,ESE,112,6.0,10.0,92,0.00,,,0.00,VWS V14.01,2013-05-08 23:11:00,
2013-05-08 19:13:00,62.0,59.7,29.83,ESE,112,5.0,8.0,92,0.00,,,0.00,VWS V14.01,2013-05-08 23:13:00,
2013-05-08 19:14:00,62.0,59.7,29.83,ESE,112,6.0,6.0,92,0.00,,,0.00,VWS V14.01,2013-05-08 23:14:00,
2013-05-08 19:15:00,62.0,59.7,29.83,SE,135,6.0,6.0,92,0.00,,,0.00,VWS V14.01,2013-05-08 23:15:00,
2013-05-08 19:17:00,62.0,60.0,29.83,SE,135,6.0,8.0,93,0.00,,,0.00,VWS V14.01,2013-05-08 23:17:00,
2013-05-08 19:18:00,62.0,59.7,29.83,SE,135,6.0,9.0,92,0.00,,,0.00,VWS V14.01,2013-05-08 23:18:00,
2013-05-08 19:20:00,62.0,60.0,29.83,SE,135,9.0,9.0,93,0.00,,,0.00,VWS V14.01,2013-05-08 23:20:00,
2013-05-08 19:22:00,61.0,59.0,29.83,ESE,112,8.0,8.0,93,0.00,,,0.00,VWS V14.01,2013-05-08 23:22:00,
2013-05-08 19:24:00,62.0,60.0,29.82,ESE,112,7.0,7.0,93,0.00,,,0.00,VWS V14.01,2013-05-08 23:24:00,
2013-05-08 19:25:00,62.0,60.0,29.82,ESE,112,6.0,7.0,93,0.00,,,0.00,VWS V14.01,2013-05-08 23:25:00,
2013-05-08 19:26:00,61.0,59.0,29.82,East,90,9.0,11.0,93,0.00,,,0.00,VWS V14.01,2013-05-08 23:26:00,
2013-05-08 19:27:00,61.0,59.0,29.82,ESE,112,10.0,12.0,93,0.00,,,0.00,VWS V14.01,2013-05-08 23:27:00,
2013-05-08 19:30:00,61.0,59.0,29.82,ESE,112,10.0,10.0,93,0.00,,,0.00,VWS V14.01,2013-05-08 23:30:00,
2013-05-08 19:31:00,61.0,59.0,29.82,SE,135,5.0,9.0,93,0.00,,,0.00,VWS V14.01,2013-05-08 23:31:00,
2013-05-08 19:32:00,61.0,59.0,29.82,SE,135,7.0,7.0,93,0.00,,,0.00,VWS V14.01,2013-05-08 23:32:00,
2013-05-08 19:34:00,61.0,59.0,29.82,SE,135,6.0,12.0,93,0.00,,,0.00,VWS V14.01,2013-05-08 23:34:00,
2013-05-08 19:35:00,61.0,59.0,29.82,SE,135,7.0,11.0,93,0.00,,,0.00,VWS V14.01,2013-05-08 23:35:00,
2013-05-08 19:37:00,61.0,59.0,29.82,ESE,112,9.0,11.0,93,0.00,,,0.00,VWS V14.01,2013-05-08 23:37:00,
2013-05-08 19:38:00,61.0,59.0,29.82,ESE,112,10.0,11.0,93,0.00,,,0.00,VWS V14.01,2013-05-08 23:38:00,
2013-05-08 19:40:00,61.0,58.7,29.82,ESE,112,9.0,9.0,92,0.00,,,0.00,VWS V14.01,2013-05-08 23:40:00,
2013-05-08 19:41:00,61.0,58.7,29.82,ESE,112,8.0,9.0,92,0.00,,,0.00,VWS V14.01,2013-05-08 23:41:00,
2013-05-08 19:42:00,61.0,58.7,29.82,ESE,112,7.0,9.0,92,0.00,,,0.00,VWS V14.01,2013-05-08 23:42:00,
2013-05-08 19:43:00,61.0,58.7,29.82,ESE,112,8.0,9.0,92,0.00,,,0.00,VWS V14.01,2013-05-08 23:43:00,
2013-05-08 19:45:00,62.0,59.7,29.82,SE,135,7.0,9.0,92,0.00,,,0.00,VWS V14.01,2013-05-08 23:45:00,
2013-05-08 19:46:00,61.0,59.0,29.82,SE,135,6.0,10.0,93,0.00,,,0.00,VWS V14.01,2013-05-08 23:46:00,
2013-05-08 19:47:00,61.0,59.0,29.82,East,90,9.0,9.0,93,0.00,,,0.00,VWS V14.01,2013-05-08 23:47:00,
2013-05-08 19:49:00,61.0,59.0,29.82,SE,135,9.0,10.0,93,0.00,,,0.00,VWS V14.01,2013-05-08 23:49:00,
2013-05-08 19:51:00,61.0,59.0,29.82,ESE,112,11.0,11.0,93,0.00,,,0.00,VWS V14.01,2013-05-08 23:51:00,
2013-05-08 19:52:00,61.0,59.0,29.82,ESE,112,6.0,9.0,93,0.00,,,0.00,VWS V14.01,2013-05-08 23:52:00,
2013-05-08 19:54:00,61.0,59.0,29.82,ESE,112,10.0,10.0,93,0.00,,,0.00,VWS V14.01,2013-05-08 23:54:00,
2013-05-08 19:55:00,61.0,59.0,29.82,ESE,112,10.0,10.0,93,0.00,,,0.00,VWS V14.01,2013-05-08 23:55:00,
2013-05-08 19:57:00,61.0,59.0,29.82,ESE,112,9.0,9.0,93,0.00,,,0.00,VWS V14.01,2013-05-08 23:57:00,
2013-05-08 19:58:00,61.0,59.0,29.82,ESE,112,6.0,8.0,93,0.00,,,0.00,VWS V14.01,2013-05-08 23:58:00,
2013-05-08 19:59:00,61.0,59.0,29.82,ESE,112,7.0,9.0,93,0.00,,,0.00,VWS V14.01,2013-05-08 23:59:00,
2013-05-08 20:01:00,61.0,59.0,29.82,SE,135,7.0,10.0,93,0.00,,,0.00,VWS V14.01,2013-05-09 00:01:00,
2013-05-08 20:03:00,61.0,59.0,29.82,ESE,112,7.0,7.0,93,0.00,,,0.00,VWS V14.01,2013-05-09 00:03:00,
2013-05-08 20:06:00,61.0,59.0,29.82,SE,135,7.0,8.0,93,0.00,,,0.00,VWS V14.01,2013-05-09 00:06:00,
2013-05-08 20:08:00,61.0,59.0,29.82,SE,135,4.0,7.0,93,0.00,,,0.00,VWS V14.01,2013-05-09 00:08:00,
2013-05-08 20:09:00,61.0,59.0,29.82,SE,135,6.0,11.0,93,0.00,,,0.00,VWS V14.01,2013-05-09 00:09:00,
2013-05-08 20:12:00,61.0,59.0,29.82,ESE,112,4.0,7.0,93,0.00,,,0.00,VWS V14.01,2013-05-09 00:12:00,
2013-05-08 20:13:00,61.0,59.0,29.82,South,180,6.0,7.0,93,0.00,,,0.00,VWS V14.01,2013-05-09 00:13:00,
2013-05-08 20:14:00,61.0,59.0,29.82,ESE,112,7.0,10.0,93,0.00,,,0.00,VWS V14.01,2013-05-09 00:14:00,
2013-05-08 20:15:00,61.0,59.0,29.82,SE,135,7.0,7.0,93,0.00,,,0.00,VWS V14.01,2013-05-09 00:15:00,
2013-05-08 20:17:00,61.0,59.0,29.82,SE,135,6.0,9.0,93,0.00,,,0.00,VWS V14.01,2013-05-09 00:17:00,
2013-05-08 20:18:00,61.0,59.0,29.82,ESE,112,9.0,9.0,93,0.00,,,0.00,VWS V14.01,2013-05-09 00:18:00,
2013-05-08 20:19:00,61.0,59.0,29.82,ESE,112,6.0,9.0,93,0.00,,,0.00,VWS V14.01,2013-05-09 00:19:00,
2013-05-08 20:20:00,61.0,59.0,29.82,ESE,112,5.0,6.0,93,0.00,,,0.00,VWS V14.01,2013-05-09 00:20:00,
2013-05-08 20:21:00,61.0,59.0,29.82,SE,135,8.0,9.0,93,0.00,,,0.00,VWS V14.01,2013-05-09 00:21:00,
2013-05-08 20:22:00,61.0,59.0,29.82,SSE,157,7.0,10.0,93,0.00,,,0.00,VWS V14.01,2013-05-09 00:22:00,
2013-05-08 20:24:00,61.0,59.0,29.83,SSE,157,6.0,8.0,93,0.00,,,0.00,VWS V14.01,2013-05-09 00:24:00,
2013-05-08 20:25:00,61.0,59.0,29.83,SSE,157,6.0,9.0,93,0.00,,,0.00,VWS V14.01,2013-05-09 00:25:00,
2013-05-08 20:26:00,61.0,59.0,29.83,ESE,112,9.0,10.0,93,0.00,,,0.00,VWS V14.01,2013-05-09 00:26:00,
2013-05-08 20:28:00,61.0,59.0,29.83,SE,135,7.0,9.0,93,0.00,,,0.00,VWS V14.01,2013-05-09 00:28:00,
2013-05-08 20:29:00,61.0,59.0,29.83,SE,135,6.0,9.0,93,0.00,,,0.00,VWS V14.01,2013-05-09 00:29:00,
2013-05-08 20:31:00,61.0,59.0,29.83,ESE,112,4.0,10.0,93,0.00,,,0.00,VWS V14.01,2013-05-09 00:31:00,
2013-05-08 20:33:00,61.0,59.0,29.83,SE,135,5.0,8.0,93,0.00,,,0.00,VWS V14.01,2013-05-09 00:33:00,
2013-05-08 20:34:00,61.0,59.3,29.83,ESE,112,6.0,9.0,94,0.00,,,0.00,VWS V14.01,2013-05-09 00:34:00,
2013-05-08 20:35:00,61.0,59.3,29.83,ESE,112,6.0,9.0,94,0.00,,,0.00,VWS V14.01,2013-05-09 00:35:00,
2013-05-08 20:37:00,61.0,59.3,29.83,SSE,157,9.0,10.0,94,0.00,,,0.00,VWS V14.01,2013-05-09 00:37:00,
2013-05-08 20:38:00,61.0,59.3,29.83,SE,135,6.0,10.0,94,0.00,,,0.00,VWS V14.01,2013-05-09 00:38:00,
2013-05-08 20:40:00,61.0,59.3,29.83,SE,135,4.0,9.0,94,0.00,,,0.00,VWS V14.01,2013-05-09 00:40:00,
2013-05-08 20:43:00,61.0,59.3,29.83,SSE,157,8.0,9.0,94,0.00,,,0.00,VWS V14.01,2013-05-09 00:43:00,
2013-05-08 20:44:00,61.0,59.3,29.82,SE,135,5.0,7.0,94,0.00,,,0.00,VWS V14.01,2013-05-09 00:44:00,
2013-05-08 20:45:00,61.0,59.3,29.82,SE,135,7.0,7.0,94,0.00,,,0.00,VWS V14.01,2013-05-09 00:45:00,
2013-05-08 20:48:00,61.0,59.3,29.82,SSE,157,6.0,11.0,94,0.00,,,0.00,VWS V14.01,2013-05-09 00:48:00,
2013-05-08 20:50:00,60.0,58.3,29.82,SE,135,7.0,12.0,94,0.00,,,0.00,VWS V14.01,2013-05-09 00:50:00,
2013-05-08 20:51:00,60.0,58.3,29.82,SE,135,6.0,12.0,94,0.00,,,0.00,VWS V14.01,2013-05-09 00:51:00,
2013-05-08 20:52:00,60.0,58.3,29.82,SSE,157,6.0,12.0,94,0.00,,,0.00,VWS V14.01,2013-05-09 00:52:00,
2013-05-08 20:54:00,60.0,58.3,29.82,SE,135,7.0,7.0,94,0.00,,,0.00,VWS V14.01,2013-05-09 00:54:00,
2013-05-08 20:56:00,61.0,59.6,29.82,SE,135,10.0,10.0,95,0.00,,,0.00,VWS V14.01,2013-05-09 00:56:00,
2013-05-08 20:57:00,60.0,58.6,29.82,SSE,157,5.0,12.0,95,0.00,,,0.00,VWS V14.01,2013-05-09 00:57:00,
2013-05-08 20:59:00,60.0,58.6,29.82,SE,135,7.0,10.0,95,0.00,,,0.00,VWS V14.01,2013-05-09 00:59:00,
2013-05-08 21:02:00,60.0,58.6,29.82,SSE,157,6.0,10.0,95,0.00,,,0.00,VWS V14.01,2013-05-09 01:02:00,
2013-05-08 21:03:00,60.0,58.6,29.82,SSE,157,5.0,10.0,95,0.00,,,0.00,VWS V14.01,2013-05-09 01:03:00,
2013-05-08 21:05:00,61.0,59.6,29.82,SE,135,3.0,10.0,95,0.00,,,0.00,VWS V14.01,2013-05-09 01:05:00,
2013-05-08 21:06:00,61.0,59.6,29.82,SE,135,8.0,12.0,95,0.00,,,0.00,VWS V14.01,2013-05-09 01:06:00,
2013-05-08 21:08:00,61.0,59.6,29.82,ESE,112,6.0,7.0,95,0.00,,,0.00,VWS V14.01,2013-05-09 01:08:00,
2013-05-08 21:09:00,61.0,59.6,29.82,SE,135,5.0,10.0,95,0.00,,,0.00,VWS V14.01,2013-05-09 01:09:00,
2013-05-08 21:10:00,61.0,59.6,29.82,ESE,112,6.0,10.0,95,0.00,,,0.00,VWS V14.01,2013-05-09 01:10:00,
2013-05-08 21:11:00,61.0,59.6,29.82,SE,135,9.0,9.0,95,0.00,,,0.00,VWS V14.01,2013-05-09 01:11:00,
2013-05-08 21:14:00,61.0,59.6,29.82,SE,135,6.0,11.0,95,0.00,,,0.00,VWS V14.01,2013-05-09 01:14:00,
2013-05-08 21:15:00,61.0,59.6,29.82,SE,135,6.0,11.0,95,0.00,,,0.00,VWS V14.01,2013-05-09 01:15:00,
2013-05-08 21:16:00,61.0,59.6,29.82,SE,135,8.0,12.0,95,0.00,,,0.00,VWS V14.01,2013-05-09 01:16:00,
2013-05-08 21:17:00,61.0,59.6,29.82,ESE,112,5.0,10.0,95,0.00,,,0.00,VWS V14.01,2013-05-09 01:17:00,
2013-05-08 21:18:00,60.0,58.6,29.82,SE,135,7.0,8.0,95,0.00,,,0.00,VWS V14.01,2013-05-09 01:18:00,
2013-05-08 21:20:00,60.0,58.6,29.82,SSE,157,10.0,10.0,95,0.00,,,0.00,VWS V14.01,2013-05-09 01:20:00,
2013-05-08 21:22:00,60.0,58.9,29.82,ESE,112,7.0,9.0,96,0.00,,,0.00,VWS V14.01,2013-05-09 01:22:00,
2013-05-08 21:23:00,60.0,58.9,29.82,SE,135,7.0,9.0,96,0.00,,,0.00,VWS V14.01,2013-05-09 01:23:00,
2013-05-08 21:24:00,60.0,58.9,29.82,ESE,112,9.0,9.0,96,0.00,,,0.00,VWS V14.01,2013-05-09 01:24:00,
2013-05-08 21:25:00,60.0,58.9,29.82,SE,135,4.0,6.0,96,0.00,,,0.00,VWS V14.01,2013-05-09 01:25:00,
2013-05-08 21:27:00,60.0,59.2,29.82,SE,135,7.0,10.0,97,0.00,,,0.00,VWS V14.01,2013-05-09 01:27:00,
2013-05-08 21:28:00,60.0,59.2,29.82,ESE,112,6.0,10.0,97,0.00,,,0.00,VWS V14.01,2013-05-09 01:28:00,
2013-05-08 21:29:00,60.0,59.2,29.82,ESE,112,7.0,10.0,97,0.00,,,0.00,VWS V14.01,2013-05-09 01:29:00,
2013-05-08 21:30:00,60.0,59.2,29.82,SE,135,7.0,7.0,97,0.00,,,0.00,VWS V14.01,2013-05-09 01:30:00,
2013-05-08 21:31:00,60.0,59.2,29.82,SE,135,5.0,5.0,97,0.00,,,0.00,VWS V14.01,2013-05-09 01:31:00,
2013-05-08 21:33:00,60.0,59.4,29.82,SE,135,4.0,8.0,98,0.00,,,0.00,VWS V14.01,2013-05-09 01:33:00,
2013-05-08 21:34:00,60.0,59.4,29.81,SSE,157,6.0,6.0,98,0.00,,,0.00,VWS V14.01,2013-05-09 01:34:00,
2013-05-08 21:35:00,60.0,59.4,29.81,ESE,112,7.0,8.0,98,0.00,,,0.00,VWS V14.01,2013-05-09 01:35:00,
2013-05-08 21:37:00,60.0,59.4,29.81,SE,135,7.0,8.0,98,0.00,,,0.00,VWS V14.01,2013-05-09 01:37:00,
2013-05-08 21:39:00,60.0,59.4,29.81,SSE,157,6.0,9.0,98,0.00,,,0.00,VWS V14.01,2013-05-09 01:39:00,
2013-05-08 21:40:00,60.0,59.4,29.81,SE,135,7.0,9.0,98,0.00,,,0.00,VWS V14.01,2013-05-09 01:40:00,
2013-05-08 21:41:00,60.0,59.4,29.81,SSE,157,9.0,9.0,98,0.00,,,0.00,VWS V14.01,2013-05-09 01:41:00,
2013-05-08 21:44:00,60.0,59.4,29.81,ESE,112,6.0,6.0,98,0.00,,,0.00,VWS V14.01,2013-05-09 01:44:00,
2013-05-08 21:45:00,60.0,59.4,29.81,SSE,157,7.0,10.0,98,0.00,,,0.00,VWS V14.01,2013-05-09 01:45:00,
2013-05-08 21:46:00,60.0,59.4,29.81,ESE,112,7.0,10.0,98,0.00,,,0.00,VWS V14.01,2013-05-09 01:46:00,
2013-05-08 21:50:00,60.0,59.4,29.81,SE,135,6.0,11.0,98,0.00,,,0.00,VWS V14.01,2013-05-09 01:50:00,
2013-05-08 21:51:00,60.0,59.4,29.81,SE,135,7.0,8.0,98,0.00,,,0.00,VWS V14.01,2013-05-09 01:51:00,
2013-05-08 21:52:00,60.0,59.4,29.81,ESE,112,7.0,8.0,98,0.00,,,0.00,VWS V14.01,2013-05-09 01:52:00,
2013-05-08 21:55:00,60.0,59.4,29.81,SE,135,7.0,7.0,98,0.00,,,0.00,VWS V14.01,2013-05-09 01:55:00,
2013-05-08 21:56:00,60.0,59.4,29.81,SE,135,6.0,7.0,98,0.01,,,0.01,VWS V14.01,2013-05-09 01:56:00,
2013-05-08 21:57:00,60.0,59.4,29.81,SE,135,7.0,7.0,98,0.01,,,0.01,VWS V14.01,2013-05-09 01:57:00,
2013-05-08 21:58:00,60.0,59.4,29.81,SE,135,6.0,7.0,98,0.01,,,0.01,VWS V14.01,2013-05-09 01:58:00,
2013-05-08 22:00:00,60.0,59.4,29.81,SE,135,7.0,7.0,98,0.01,,,0.01,VWS V14.01,2013-05-09 02:00:00,
2013-05-08 22:01:00,60.0,59.4,29.81,SE,135,7.0,9.0,98,0.01,,,0.01,VWS V14.01,2013-05-09 02:01:00,
2013-05-08 22:02:00,60.0,59.4,29.81,ESE,112,6.0,9.0,98,0.01,,,0.01,VWS V14.01,2013-05-09 02:02:00,
2013-05-08 22:03:00,60.0,59.4,29.81,ESE,112,6.0,6.0,98,0.01,,,0.01,VWS V14.01,2013-05-09 02:03:00,
2013-05-08 22:05:00,60.0,59.4,29.81,SE,135,7.0,7.0,98,0.01,,,0.01,VWS V14.01,2013-05-09 02:05:00,
2013-05-08 22:06:00,60.0,59.4,29.81,SE,135,6.0,11.0,98,0.01,,,0.01,VWS V14.01,2013-05-09 02:06:00,
2013-05-08 22:07:00,60.0,59.2,29.81,SE,135,11.0,11.0,97,0.01,,,0.01,VWS V14.01,2013-05-09 02:07:00,
2013-05-08 22:09:00,60.0,59.2,29.81,SE,135,8.0,9.0,97,0.01,,,0.01,VWS V14.01,2013-05-09 02:09:00,
2013-05-08 22:10:00,60.0,59.2,29.81,SE,135,10.0,10.0,97,0.01,,,0.01,VWS V14.01,2013-05-09 02:10:00,
2013-05-08 22:13:00,60.0,59.2,29.81,SSE,157,7.0,7.0,97,0.01,,,0.01,VWS V14.01,2013-05-09 02:13:00,
2013-05-08 22:14:00,60.0,59.2,29.81,South,180,7.0,9.0,97,0.01,,,0.01,VWS V14.01,2013-05-09 02:14:00,
2013-05-08 22:15:00,60.0,59.2,29.81,South,180,6.0,9.0,97,0.01,,,0.01,VWS V14.01,2013-05-09 02:15:00,
2013-05-08 22:16:00,60.0,59.2,29.81,South,180,6.0,9.0,97,0.01,,,0.01,VWS V14.01,2013-05-09 02:16:00,
2013-05-08 22:18:00,60.0,59.2,29.81,SSW,202,7.0,8.0,97,0.01,,,0.01,VWS V14.01,2013-05-09 02:18:00,
2013-05-08 22:19:00,60.0,59.2,29.81,SE,135,7.0,8.0,97,0.01,,,0.01,VWS V14.01,2013-05-09 02:19:00,
2013-05-08 22:20:00,60.0,59.2,29.81,SSW,202,3.0,9.0,97,0.01,,,0.01,VWS V14.01,2013-05-09 02:20:00,
2013-05-08 22:21:00,60.0,59.2,29.81,ESE,112,7.0,10.0,97,0.01,,,0.01,VWS V14.01,2013-05-09 02:21:00,
2013-05-08 22:23:00,60.0,59.2,29.81,SSE,157,9.0,10.0,97,0.01,,,0.02,VWS V14.01,2013-05-09 02:23:00,
2013-05-08 22:24:00,60.0,59.2,29.81,SW,225,5.0,9.0,97,0.02,,,0.03,VWS V14.01,2013-05-09 02:24:00,
2013-05-08 22:25:00,60.0,59.2,29.81,SE,135,3.0,8.0,97,0.04,,,0.04,VWS V14.01,2013-05-09 02:25:00,
2013-05-08 22:26:00,60.0,59.2,29.81,SE,135,4.0,8.0,97,0.04,,,0.04,VWS V14.01,2013-05-09 02:26:00,
2013-05-08 22:28:00,60.0,59.4,29.81,South,180,10.0,10.0,98,0.04,,,0.04,VWS V14.01,2013-05-09 02:28:00,
2013-05-08 22:30:00,60.0,59.4,29.81,SE,135,7.0,7.0,98,0.04,,,0.04,VWS V14.01,2013-05-09 02:30:00,
2013-05-08 22:31:00,60.0,59.4,29.81,South,180,7.0,10.0,98,0.04,,,0.04,VWS V14.01,2013-05-09 02:31:00,
2013-05-08 22:32:00,60.0,59.4,29.81,South,180,7.0,7.0,98,0.04,,,0.04,VWS V14.01,2013-05-09 02:32:00,
2013-05-08 22:34:00,60.0,59.4,29.81,SSW,202,8.0,10.0,98,0.04,,,0.04,VWS V14.01,2013-05-09 02:34:00,
2013-05-08 22:36:00,60.0,59.4,29.80,South,180,7.0,10.0,98,0.04,,,0.04,VWS V14.01,2013-05-09 02:36:00,
2013-05-08 22:37:00,60.0,59.4,29.80,SE,135,9.0,9.0,98,0.04,,,0.04,VWS V14.01,2013-05-09 02:37:00,
2013-05-08 22:38:00,60.0,59.4,29.80,SE,135,3.0,6.0,98,0.04,,,0.04,VWS V14.01,2013-05-09 02:38:00,
2013-05-08 22:40:00,60.0,59.4,29.80,South,180,5.0,7.0,98,0.04,,,0.04,VWS V14.01,2013-05-09 02:40:00,
2013-05-08 22:42:00,60.0,59.4,29.80,South,180,7.0,7.0,98,0.04,,,0.06,VWS V14.01,2013-05-09 02:42:00,
2013-05-08 22:43:00,60.0,59.4,29.80,SE,135,7.0,7.0,98,0.08,,,0.10,VWS V14.01,2013-05-09 02:43:00,
2013-05-08 22:44:00,60.0,59.4,29.80,SSE,157,3.0,7.0,98,0.08,,,0.10,VWS V14.01,2013-05-09 02:44:00,
2013-05-08 22:45:00,60.0,59.4,29.80,SE,135,9.0,9.0,98,0.10,,,0.10,VWS V14.01,2013-05-09 02:45:00,
2013-05-08 22:47:00,60.0,59.4,29.80,SSE,157,9.0,9.0,98,0.10,,,0.10,VWS V14.01,2013-05-09 02:47:00,
2013-05-08 22:48:00,59.0,58.4,29.80,SE,135,3.0,9.0,98,0.10,,,0.10,VWS V14.01,2013-05-09 02:48:00,
2013-05-08 22:49:00,60.0,59.4,29.80,ESE,112,3.0,7.0,98,0.11,,,0.11,VWS V14.01,2013-05-09 02:49:00,
2013-05-08 22:51:00,60.0,59.4,29.80,SSE,157,5.0,5.0,98,0.11,,,0.11,VWS V14.01,2013-05-09 02:51:00,
2013-05-08 22:52:00,60.0,59.4,29.80,SSE,157,1.0,6.0,98,0.11,,,0.11,VWS V14.01,2013-05-09 02:52:00,
2013-05-08 22:53:00,59.0,58.4,29.80,South,180,5.0,9.0,98,0.11,,,0.11,VWS V14.01,2013-05-09 02:53:00,
2013-05-08 22:54:00,60.0,59.4,29.80,SSW,202,6.0,7.0,98,0.11,,,0.11,VWS V14.01,2013-05-09 02:54:00,
2013-05-08 22:56:00,59.0,58.4,29.80,South,180,7.0,7.0,98,0.11,,,0.11,VWS V14.01,2013-05-09 02:56:00,
2013-05-08 22:57:00,59.0,58.4,29.80,SSE,157,4.0,7.0,98,0.11,,,0.11,VWS V14.01,2013-05-09 02:57:00,
2013-05-08 22:58:00,59.0,58.4,29.80,SSW,202,6.0,12.0,98,0.11,,,0.11,VWS V14.01,2013-05-09 02:58:00,
2013-05-08 23:00:00,59.0,58.4,29.80,ESE,112,8.0,8.0,98,0.11,,,0.11,VWS V14.01,2013-05-09 03:00:00,
2013-05-08 23:01:00,59.0,58.4,29.80,ESE,112,4.0,6.0,98,0.11,,,0.11,VWS V14.01,2013-05-09 03:01:00,
2013-05-08 23:02:00,59.0,58.4,29.80,SE,135,7.0,8.0,98,0.11,,,0.11,VWS V14.01,2013-05-09 03:02:00,
2013-05-08 23:04:00,59.0,58.4,29.80,South,180,6.0,10.0,98,0.11,,,0.11,VWS V14.01,2013-05-09 03:04:00,
2013-05-08 23:05:00,59.0,58.4,29.81,South,180,4.0,12.0,98,0.11,,,0.11,VWS V14.01,2013-05-09 03:05:00,
2013-05-08 23:07:00,59.0,58.4,29.81,SSW,202,6.0,13.0,98,0.11,,,0.11,VWS V14.01,2013-05-09 03:07:00,
2013-05-08 23:09:00,59.0,58.4,29.81,ESE,112,7.0,13.0,98,0.11,,,0.11,VWS V14.01,2013-05-09 03:09:00,
2013-05-08 23:10:00,59.0,58.4,29.81,SE,135,7.0,9.0,98,0.11,,,0.11,VWS V14.01,2013-05-09 03:10:00,
2013-05-08 23:11:00,59.0,58.4,29.81,ESE,112,7.0,10.0,98,0.11,,,0.11,VWS V14.01,2013-05-09 03:11:00,
2013-05-08 23:12:00,59.0,58.4,29.81,South,180,8.0,13.0,98,0.11,,,0.12,VWS V14.01,2013-05-09 03:12:00,
2013-05-08 23:13:00,59.0,58.4,29.81,SSE,157,9.0,10.0,98,0.12,,,0.13,VWS V14.01,2013-05-09 03:13:00,
2013-05-08 23:14:00,59.0,58.4,29.81,SE,135,5.0,9.0,98,0.13,,,0.13,VWS V14.01,2013-05-09 03:14:00,
2013-05-08 23:15:00,59.0,58.4,29.81,SE,135,9.0,9.0,98,0.13,,,0.13,VWS V14.01,2013-05-09 03:15:00,
2013-05-08 23:17:00,59.0,58.4,29.81,South,180,4.0,15.0,98,0.13,,,0.13,VWS V14.01,2013-05-09 03:17:00,
2013-05-08 23:19:00,59.0,58.4,29.81,SE,135,6.0,10.0,98,0.13,,,0.13,VWS V14.01,2013-05-09 03:19:00,
2013-05-08 23:21:00,59.0,58.4,29.81,ESE,112,9.0,9.0,98,0.13,,,0.13,VWS V14.01,2013-05-09 03:21:00,
2013-05-08 23:22:00,59.0,58.4,29.81,SSE,157,6.0,12.0,98,0.13,,,0.13,VWS V14.01,2013-05-09 03:22:00,
2013-05-08 23:23:00,59.0,58.4,29.81,South,180,10.0,10.0,98,0.13,,,0.13,VWS V14.01,2013-05-09 03:23:00,
2013-05-08 23:24:00,59.0,58.4,29.81,SE,135,7.0,7.0,98,0.13,,,0.13,VWS V14.01,2013-05-09 03:24:00,
2013-05-08 23:26:00,59.0,58.4,29.80,South,180,7.0,7.0,98,0.13,,,0.13,VWS V14.01,2013-05-09 03:26:00,
2013-05-08 23:27:00,59.0,58.4,29.80,South,180,4.0,9.0,98,0.13,,,0.13,VWS V14.01,2013-05-09 03:27:00,
2013-05-08 23:28:00,59.0,58.4,29.80,ESE,112,4.0,9.0,98,0.13,,,0.13,VWS V14.01,2013-05-09 03:28:00,
2013-05-08 23:29:00,59.0,58.4,29.80,SSE,157,8.0,12.0,98,0.13,,,0.13,VWS V14.01,2013-05-09 03:29:00,
2013-05-08 23:32:00,59.0,58.4,29.80,SSW,202,9.0,10.0,98,0.13,,,0.13,VWS V14.01,2013-05-09 03:32:00,
2013-05-08 23:33:00,59.0,58.4,29.80,SSW,202,9.0,9.0,98,0.13,,,0.13,VWS V14.01,2013-05-09 03:33:00,
2013-05-08 23:34:00,59.0,58.4,29.80,SSW,202,7.0,10.0,98,0.13,,,0.13,VWS V14.01,2013-05-09 03:34:00,
2013-05-08 23:35:00,59.0,58.4,29.80,South,180,7.0,10.0,98,0.13,,,0.14,VWS V14.01,2013-05-09 03:35:00,
2013-05-08 23:36:00,59.0,58.4,29.80,SSE,157,7.0,7.0,98,0.15,,,0.15,VWS V14.01,2013-05-09 03:36:00,
2013-05-08 23:38:00,59.0,58.4,29.80,SSE,157,7.0,9.0,98,0.16,,,0.17,VWS V14.01,2013-05-09 03:38:00,
2013-05-08 23:40:00,59.0,58.4,29.80,South,180,9.0,11.0,98,0.18,,,0.18,VWS V14.01,2013-05-09 03:40:00,
2013-05-08 23:41:00,59.0,58.4,29.80,South,180,6.0,9.0,98,0.18,,,0.18,VWS V14.01,2013-05-09 03:41:00,
2013-05-08 23:42:00,59.0,58.4,29.80,SSE,157,4.0,6.0,98,0.18,,,0.18,VWS V14.01,2013-05-09 03:42:00,
2013-05-08 23:44:00,59.0,58.4,29.79,South,180,6.0,10.0,98,0.18,,,0.18,VWS V14.01,2013-05-09 03:44:00,
2013-05-08 23:46:00,59.0,58.4,29.79,SSE,157,7.0,8.0,98,0.18,,,0.18,VWS V14.01,2013-05-09 03:46:00,
2013-05-08 23:47:00,59.0,58.4,29.79,SSE,157,3.0,6.0,98,0.18,,,0.18,VWS V14.01,2013-05-09 03:47:00,
2013-05-08 23:49:00,59.0,58.4,29.79,South,180,6.0,9.0,98,0.18,,,0.18,VWS V14.01,2013-05-09 03:49:00,
2013-05-08 23:51:00,59.0,58.4,29.79,SE,135,7.0,9.0,98,0.18,,,0.18,VWS V14.01,2013-05-09 03:51:00,
2013-05-08 23:52:00,59.0,58.4,29.79,SSE,157,6.0,9.0,98,0.18,,,0.18,VWS V14.01,2013-05-09 03:52:00,
2013-05-08 23:53:00,59.0,58.4,29.79,South,180,3.0,9.0,98,0.18,,,0.18,VWS V14.01,2013-05-09 03:53:00,
2013-05-08 23:54:00,59.0,58.4,29.79,SSE,157,7.0,11.0,98,0.18,,,0.18,VWS V14.01,2013-05-09 03:54:00,
2013-05-08 23:55:00,59.0,58.4,29.79,SE,135,6.0,11.0,98,0.18,,,0.18,VWS V14.01,2013-05-09 03:55:00,
2013-05-08 23:56:00,59.0,58.4,29.79,SE,135,4.0,4.0,98,0.18,,,0.18,VWS V14.01,2013-05-09 03:56:00,
2013-05-08 23:57:00,59.0,58.4,29.79,SSW,202,8.0,9.0,98,0.17,,,0.18,VWS V14.01,2013-05-09 03:57:00,
2013-05-08 23:58:00,59.0,58.4,29.79,South,180,6.0,8.0,98,0.17,,,0.18,VWS V14.01,2013-05-09 03:58:00,
2013-05-08 23:59:00,59.0,58.4,29.79,SSE,157,7.0,10.0,98,0.17,,,0.18,VWS V14.01,2013-05-09 03:59:00,